<?xml version="1.0" encoding="UTF-8" standalone="no" ?>
<gpx xmlns="http://www.topografix.com/GPX/1/1" xmlns:xsi="http://www.w3.org/2001/XMLSchema-instance" xsi:schemaLocation="http://www.topografix.com/GPX/1/1 http://www.topografix.com/GPX/1/1/gpx.xsd" version="1.1" creator="VisuGPX - https://www.visugpx.com">
  <metadata>
    <name> Cournonterral 19/05/2014 Vtt sous la pluie</name>
    <desc><![CDATA[Parcours VTT sur la commune de Cournonterral (34660) Terrain  de type garrigue, chemin de carrière et monotrace : roche et cailloux saillants, très cassant, végétation agressive ; montée ou descente (aucun plat) effort cardio important ; environ un tiers du parcours est très technique.
Cette trace à été enregistrée un jour de pluie (19/05/2014) donc progression très difficile.]]></desc>
  </metadata>
  <trk>
    <name><![CDATA[2014-05-19 17:23]]></name>
    <desc><![CDATA[<h1>OruxMaps</h1><br /><hr align="center" width="480" style="height: 2px; width: 517px"/><h2>Nom: 2014-05-19 17:23</h2><br /><p>Temps de départ: 05/19/2014 17:25</p><p>Temps d'arrivée: 05/19/2014 19:21</p><p>Distance: 19,8 km (01:56)</p><p>Temps déplacement: 01:43</p><p>Vitesse moyenne: 10,2 km/h</p><p>Vitesse moyenne: 11,5 km/h</p><p>Vitess Max.: 46,9 km/h</p><p>Altitude minimale: 120 m</p><p>Altitude maximale: 264 m</p><p>Vitesse d'élévation: 433,4 m/h</p><p>Vitesse de descente: -641 m/h</p><p>Gain Altitude: 458 m</p><p>Perte Altitude: -446 m</p><p>Temps d'élévation: 01:03</p><p>Temps de descente: 00:41</p><hr align="center" width="480" style="height: 2px; width: 517px"/>]]></desc>
    <trkseg>
      <trkpt lat="43.56248" lon="3.70688">
        <ele>135.6</ele>
        <time>2014-05-19T15:25:04Z</time>
      </trkpt>
      <trkpt lat="43.56267" lon="3.70671">
        <ele>137.1058</ele>
        <time>2014-05-19T15:25:25Z</time>
      </trkpt>
      <trkpt lat="43.56279" lon="3.70652">
        <ele>138.21121</ele>
        <time>2014-05-19T15:25:29Z</time>
      </trkpt>
      <trkpt lat="43.56292" lon="3.7063">
        <ele>137.36067</ele>
        <time>2014-05-19T15:25:34Z</time>
      </trkpt>
      <trkpt lat="43.56304" lon="3.70607">
        <ele>137.15982</ele>
        <time>2014-05-19T15:25:38Z</time>
      </trkpt>
      <trkpt lat="43.56315" lon="3.70586">
        <ele>136.60023</ele>
        <time>2014-05-19T15:25:41Z</time>
      </trkpt>
      <trkpt lat="43.56329" lon="3.70564">
        <ele>135.79854</ele>
        <time>2014-05-19T15:25:44Z</time>
      </trkpt>
      <trkpt lat="43.56347" lon="3.70545">
        <ele>135.7697</ele>
        <time>2014-05-19T15:25:47Z</time>
      </trkpt>
      <trkpt lat="43.56366" lon="3.70529">
        <ele>136.53377</ele>
        <time>2014-05-19T15:25:51Z</time>
      </trkpt>
      <trkpt lat="43.56382" lon="3.70517">
        <ele>137.1955</ele>
        <time>2014-05-19T15:25:54Z</time>
      </trkpt>
      <trkpt lat="43.56401" lon="3.70502">
        <ele>139.40013</ele>
        <time>2014-05-19T15:25:58Z</time>
      </trkpt>
      <trkpt lat="43.56418" lon="3.70488">
        <ele>140.66881</ele>
        <time>2014-05-19T15:26:01Z</time>
      </trkpt>
      <trkpt lat="43.56431" lon="3.70469">
        <ele>141.60403</ele>
        <time>2014-05-19T15:26:04Z</time>
      </trkpt>
      <trkpt lat="43.56443" lon="3.70447">
        <ele>142.93608</ele>
        <time>2014-05-19T15:26:07Z</time>
      </trkpt>
      <trkpt lat="43.56451" lon="3.70426">
        <ele>143.29109</ele>
        <time>2014-05-19T15:26:11Z</time>
      </trkpt>
      <trkpt lat="43.56461" lon="3.70403">
        <ele>143.2431</ele>
        <time>2014-05-19T15:26:16Z</time>
      </trkpt>
      <trkpt lat="43.56483" lon="3.70398">
        <ele>143.0238</ele>
        <time>2014-05-19T15:26:22Z</time>
      </trkpt>
      <trkpt lat="43.56504" lon="3.70387">
        <ele>142.68808</ele>
        <time>2014-05-19T15:26:27Z</time>
      </trkpt>
      <trkpt lat="43.56522" lon="3.70377">
        <ele>142.5552</ele>
        <time>2014-05-19T15:26:31Z</time>
      </trkpt>
      <trkpt lat="43.56538" lon="3.70363">
        <ele>143.1762</ele>
        <time>2014-05-19T15:26:36Z</time>
      </trkpt>
      <trkpt lat="43.56552" lon="3.70341">
        <ele>139.2683</ele>
        <time>2014-05-19T15:27:58Z</time>
      </trkpt>
      <trkpt lat="43.56565" lon="3.70321">
        <ele>139.60652</ele>
        <time>2014-05-19T15:28:04Z</time>
      </trkpt>
      <trkpt lat="43.56574" lon="3.70298">
        <ele>139.79718</ele>
        <time>2014-05-19T15:28:10Z</time>
      </trkpt>
      <trkpt lat="43.56587" lon="3.70281">
        <ele>141.4677</ele>
        <time>2014-05-19T15:28:15Z</time>
      </trkpt>
      <trkpt lat="43.56601" lon="3.70264">
        <ele>143.44528</ele>
        <time>2014-05-19T15:28:21Z</time>
      </trkpt>
      <trkpt lat="43.56616" lon="3.70246">
        <ele>144.85254</ele>
        <time>2014-05-19T15:28:27Z</time>
      </trkpt>
      <trkpt lat="43.56629" lon="3.70228">
        <ele>144.97751</ele>
        <time>2014-05-19T15:28:32Z</time>
      </trkpt>
      <trkpt lat="43.56641" lon="3.70208">
        <ele>145.614</ele>
        <time>2014-05-19T15:28:37Z</time>
      </trkpt>
      <trkpt lat="43.56653" lon="3.70188">
        <ele>146.6707</ele>
        <time>2014-05-19T15:28:42Z</time>
      </trkpt>
      <trkpt lat="43.56667" lon="3.7017">
        <ele>148.03075</ele>
        <time>2014-05-19T15:28:47Z</time>
      </trkpt>
      <trkpt lat="43.56682" lon="3.70149">
        <ele>147.91667</ele>
        <time>2014-05-19T15:28:52Z</time>
      </trkpt>
      <trkpt lat="43.56697" lon="3.7013">
        <ele>148.49794</ele>
        <time>2014-05-19T15:28:58Z</time>
      </trkpt>
      <trkpt lat="43.5672" lon="3.70129">
        <ele>147.41772</ele>
        <time>2014-05-19T15:29:04Z</time>
      </trkpt>
      <trkpt lat="43.56739" lon="3.70133">
        <ele>151.17911</ele>
        <time>2014-05-19T15:29:09Z</time>
      </trkpt>
      <trkpt lat="43.56756" lon="3.70141">
        <ele>152.84615</ele>
        <time>2014-05-19T15:29:16Z</time>
      </trkpt>
      <trkpt lat="43.56775" lon="3.70144">
        <ele>154.40607</ele>
        <time>2014-05-19T15:29:25Z</time>
      </trkpt>
      <trkpt lat="43.56792" lon="3.70131">
        <ele>157.63869</ele>
        <time>2014-05-19T15:29:36Z</time>
      </trkpt>
      <trkpt lat="43.56811" lon="3.70122">
        <ele>159.7474</ele>
        <time>2014-05-19T15:29:45Z</time>
      </trkpt>
      <trkpt lat="43.5683" lon="3.70119">
        <ele>160.135</ele>
        <time>2014-05-19T15:29:54Z</time>
      </trkpt>
      <trkpt lat="43.56847" lon="3.70113">
        <ele>160.72675</ele>
        <time>2014-05-19T15:30:02Z</time>
      </trkpt>
      <trkpt lat="43.56865" lon="3.70114">
        <ele>161.86357</ele>
        <time>2014-05-19T15:30:10Z</time>
      </trkpt>
      <trkpt lat="43.56883" lon="3.70106">
        <ele>159.06104</ele>
        <time>2014-05-19T15:30:18Z</time>
      </trkpt>
      <trkpt lat="43.56888" lon="3.7008">
        <ele>158.15189</ele>
        <time>2014-05-19T15:30:27Z</time>
      </trkpt>
      <trkpt lat="43.56894" lon="3.70052">
        <ele>157.89795</ele>
        <time>2014-05-19T15:30:35Z</time>
      </trkpt>
      <trkpt lat="43.56905" lon="3.70026">
        <ele>157.34286</ele>
        <time>2014-05-19T15:30:40Z</time>
      </trkpt>
      <trkpt lat="43.56912" lon="3.70002">
        <ele>156.042</ele>
        <time>2014-05-19T15:30:45Z</time>
      </trkpt>
      <trkpt lat="43.56916" lon="3.69977">
        <ele>155.25499</ele>
        <time>2014-05-19T15:30:50Z</time>
      </trkpt>
      <trkpt lat="43.56924" lon="3.69951">
        <ele>154.70334</ele>
        <time>2014-05-19T15:30:56Z</time>
      </trkpt>
      <trkpt lat="43.56939" lon="3.69935">
        <ele>151.5922</ele>
        <time>2014-05-19T15:31:04Z</time>
      </trkpt>
      <trkpt lat="43.56946" lon="3.69961">
        <ele>151.50058</ele>
        <time>2014-05-19T15:31:14Z</time>
      </trkpt>
      <trkpt lat="43.56946" lon="3.69989">
        <ele>151.43799</ele>
        <time>2014-05-19T15:31:20Z</time>
      </trkpt>
      <trkpt lat="43.56944" lon="3.70019">
        <ele>150.42078</ele>
        <time>2014-05-19T15:31:26Z</time>
      </trkpt>
      <trkpt lat="43.56945" lon="3.70043">
        <ele>150.30267</ele>
        <time>2014-05-19T15:31:30Z</time>
      </trkpt>
      <trkpt lat="43.56949" lon="3.70068">
        <ele>151.22566</ele>
        <time>2014-05-19T15:31:36Z</time>
      </trkpt>
      <trkpt lat="43.56955" lon="3.70093">
        <ele>153.37445</ele>
        <time>2014-05-19T15:31:43Z</time>
      </trkpt>
      <trkpt lat="43.56961" lon="3.70119">
        <ele>153.4058</ele>
        <time>2014-05-19T15:31:51Z</time>
      </trkpt>
      <trkpt lat="43.56974" lon="3.70138">
        <ele>153.74152</ele>
        <time>2014-05-19T15:31:58Z</time>
      </trkpt>
      <trkpt lat="43.56988" lon="3.70156">
        <ele>153.16336</ele>
        <time>2014-05-19T15:32:03Z</time>
      </trkpt>
      <trkpt lat="43.56999" lon="3.70179">
        <ele>152.52473</ele>
        <time>2014-05-19T15:32:07Z</time>
      </trkpt>
      <trkpt lat="43.57004" lon="3.70207">
        <ele>151.82854</ele>
        <time>2014-05-19T15:32:11Z</time>
      </trkpt>
      <trkpt lat="43.5702" lon="3.70229">
        <ele>148.13715</ele>
        <time>2014-05-19T15:32:16Z</time>
      </trkpt>
      <trkpt lat="43.57034" lon="3.70253">
        <ele>142.93129</ele>
        <time>2014-05-19T15:32:20Z</time>
      </trkpt>
      <trkpt lat="43.57048" lon="3.70272">
        <ele>139.82559</ele>
        <time>2014-05-19T15:32:25Z</time>
      </trkpt>
      <trkpt lat="43.5706" lon="3.70294">
        <ele>140.929</ele>
        <time>2014-05-19T15:32:34Z</time>
      </trkpt>
      <trkpt lat="43.57071" lon="3.70318">
        <ele>147.67163</ele>
        <time>2014-05-19T15:32:44Z</time>
      </trkpt>
      <trkpt lat="43.57084" lon="3.70336">
        <ele>152.044</ele>
        <time>2014-05-19T15:32:56Z</time>
      </trkpt>
      <trkpt lat="43.57095" lon="3.70355">
        <ele>154.55927</ele>
        <time>2014-05-19T15:33:08Z</time>
      </trkpt>
      <trkpt lat="43.57109" lon="3.70373">
        <ele>154.09505</ele>
        <time>2014-05-19T15:33:19Z</time>
      </trkpt>
      <trkpt lat="43.57121" lon="3.70395">
        <ele>156.23209</ele>
        <time>2014-05-19T15:33:32Z</time>
      </trkpt>
      <trkpt lat="43.57129" lon="3.70419">
        <ele>158.32559</ele>
        <time>2014-05-19T15:33:43Z</time>
      </trkpt>
      <trkpt lat="43.57143" lon="3.70438">
        <ele>159.09941</ele>
        <time>2014-05-19T15:33:51Z</time>
      </trkpt>
      <trkpt lat="43.57155" lon="3.70459">
        <ele>160.01056</ele>
        <time>2014-05-19T15:33:58Z</time>
      </trkpt>
      <trkpt lat="43.57169" lon="3.70479">
        <ele>160.21133</ele>
        <time>2014-05-19T15:34:06Z</time>
      </trkpt>
      <trkpt lat="43.57183" lon="3.70497">
        <ele>161.0847</ele>
        <time>2014-05-19T15:34:13Z</time>
      </trkpt>
      <trkpt lat="43.57203" lon="3.70506">
        <ele>160.78671</ele>
        <time>2014-05-19T15:34:20Z</time>
      </trkpt>
      <trkpt lat="43.57225" lon="3.70502">
        <ele>159.23914</ele>
        <time>2014-05-19T15:34:25Z</time>
      </trkpt>
      <trkpt lat="43.57242" lon="3.70491">
        <ele>157.7668</ele>
        <time>2014-05-19T15:34:30Z</time>
      </trkpt>
      <trkpt lat="43.57258" lon="3.7048">
        <ele>156.64525</ele>
        <time>2014-05-19T15:34:36Z</time>
      </trkpt>
      <trkpt lat="43.57267" lon="3.70457">
        <ele>156.29024</ele>
        <time>2014-05-19T15:34:54Z</time>
      </trkpt>
      <trkpt lat="43.57275" lon="3.70434">
        <ele>156.28003</ele>
        <time>2014-05-19T15:35:04Z</time>
      </trkpt>
      <trkpt lat="43.57287" lon="3.70412">
        <ele>156.07355</ele>
        <time>2014-05-19T15:35:15Z</time>
      </trkpt>
      <trkpt lat="43.573" lon="3.70394">
        <ele>155.08868</ele>
        <time>2014-05-19T15:35:24Z</time>
      </trkpt>
      <trkpt lat="43.57311" lon="3.7037">
        <ele>155.28839</ele>
        <time>2014-05-19T15:35:31Z</time>
      </trkpt>
      <trkpt lat="43.57316" lon="3.70342">
        <ele>156.9145</ele>
        <time>2014-05-19T15:35:38Z</time>
      </trkpt>
      <trkpt lat="43.57323" lon="3.70318">
        <ele>157.96011</ele>
        <time>2014-05-19T15:35:46Z</time>
      </trkpt>
      <trkpt lat="43.57338" lon="3.703">
        <ele>158.01009</ele>
        <time>2014-05-19T15:35:53Z</time>
      </trkpt>
      <trkpt lat="43.57355" lon="3.70287">
        <ele>158.8531</ele>
        <time>2014-05-19T15:36:00Z</time>
      </trkpt>
      <trkpt lat="43.57373" lon="3.70272">
        <ele>156.99751</ele>
        <time>2014-05-19T15:36:09Z</time>
      </trkpt>
      <trkpt lat="43.57391" lon="3.70258">
        <ele>154.68367</ele>
        <time>2014-05-19T15:36:16Z</time>
      </trkpt>
      <trkpt lat="43.57407" lon="3.70244">
        <ele>152.9386</ele>
        <time>2014-05-19T15:36:21Z</time>
      </trkpt>
      <trkpt lat="43.57424" lon="3.70231">
        <ele>151.65211</ele>
        <time>2014-05-19T15:36:29Z</time>
      </trkpt>
      <trkpt lat="43.5744" lon="3.70218">
        <ele>152.36336</ele>
        <time>2014-05-19T15:36:39Z</time>
      </trkpt>
      <trkpt lat="43.57457" lon="3.70208">
        <ele>152.6731</ele>
        <time>2014-05-19T15:36:54Z</time>
      </trkpt>
      <trkpt lat="43.57474" lon="3.70201">
        <ele>150.54614</ele>
        <time>2014-05-19T15:37:00Z</time>
      </trkpt>
      <trkpt lat="43.57494" lon="3.70201">
        <ele>150.36069</ele>
        <time>2014-05-19T15:37:07Z</time>
      </trkpt>
      <trkpt lat="43.57512" lon="3.70205">
        <ele>152.743</ele>
        <time>2014-05-19T15:37:18Z</time>
      </trkpt>
      <trkpt lat="43.5753" lon="3.70207">
        <ele>156.04715</ele>
        <time>2014-05-19T15:37:33Z</time>
      </trkpt>
      <trkpt lat="43.57548" lon="3.70214">
        <ele>159.16737</ele>
        <time>2014-05-19T15:38:24Z</time>
      </trkpt>
      <trkpt lat="43.57565" lon="3.7022">
        <ele>161.0223</ele>
        <time>2014-05-19T15:38:37Z</time>
      </trkpt>
      <trkpt lat="43.57583" lon="3.70222">
        <ele>164.66315</ele>
        <time>2014-05-19T15:39:03Z</time>
      </trkpt>
      <trkpt lat="43.57602" lon="3.70221">
        <ele>168.37401</ele>
        <time>2014-05-19T15:39:38Z</time>
      </trkpt>
      <trkpt lat="43.5762" lon="3.70219">
        <ele>170.26134</ele>
        <time>2014-05-19T15:40:12Z</time>
      </trkpt>
      <trkpt lat="43.57637" lon="3.70207">
        <ele>174.41054</ele>
        <time>2014-05-19T15:40:43Z</time>
      </trkpt>
      <trkpt lat="43.57655" lon="3.7021">
        <ele>178.88148</ele>
        <time>2014-05-19T15:41:02Z</time>
      </trkpt>
      <trkpt lat="43.57672" lon="3.70222">
        <ele>180.55215</ele>
        <time>2014-05-19T15:41:13Z</time>
      </trkpt>
      <trkpt lat="43.57688" lon="3.70235">
        <ele>181.8491</ele>
        <time>2014-05-19T15:41:24Z</time>
      </trkpt>
      <trkpt lat="43.57708" lon="3.7023">
        <ele>182.34686</ele>
        <time>2014-05-19T15:41:35Z</time>
      </trkpt>
      <trkpt lat="43.57723" lon="3.70212">
        <ele>182.70602</ele>
        <time>2014-05-19T15:41:44Z</time>
      </trkpt>
      <trkpt lat="43.57734" lon="3.70188">
        <ele>183.2754</ele>
        <time>2014-05-19T15:41:52Z</time>
      </trkpt>
      <trkpt lat="43.57747" lon="3.70169">
        <ele>184.11247</ele>
        <time>2014-05-19T15:42:00Z</time>
      </trkpt>
      <trkpt lat="43.57759" lon="3.70147">
        <ele>184.9882</ele>
        <time>2014-05-19T15:42:08Z</time>
      </trkpt>
      <trkpt lat="43.57767" lon="3.70123">
        <ele>183.61392</ele>
        <time>2014-05-19T15:42:15Z</time>
      </trkpt>
      <trkpt lat="43.57773" lon="3.70097">
        <ele>181.80487</ele>
        <time>2014-05-19T15:42:20Z</time>
      </trkpt>
      <trkpt lat="43.57783" lon="3.7007">
        <ele>180.16083</ele>
        <time>2014-05-19T15:42:25Z</time>
      </trkpt>
      <trkpt lat="43.578" lon="3.70062">
        <ele>179.73991</ele>
        <time>2014-05-19T15:42:30Z</time>
      </trkpt>
      <trkpt lat="43.57821" lon="3.70062">
        <ele>179.5047</ele>
        <time>2014-05-19T15:42:37Z</time>
      </trkpt>
      <trkpt lat="43.57839" lon="3.70053">
        <ele>179.98688</ele>
        <time>2014-05-19T15:42:43Z</time>
      </trkpt>
      <trkpt lat="43.5786" lon="3.70053">
        <ele>181.8002</ele>
        <time>2014-05-19T15:42:50Z</time>
      </trkpt>
      <trkpt lat="43.5788" lon="3.70054">
        <ele>184.18185</ele>
        <time>2014-05-19T15:42:57Z</time>
      </trkpt>
      <trkpt lat="43.57901" lon="3.70056">
        <ele>184.35042</ele>
        <time>2014-05-19T15:43:04Z</time>
      </trkpt>
      <trkpt lat="43.57922" lon="3.70056">
        <ele>184.71925</ele>
        <time>2014-05-19T15:43:11Z</time>
      </trkpt>
      <trkpt lat="43.57934" lon="3.70037">
        <ele>184.06966</ele>
        <time>2014-05-19T15:43:17Z</time>
      </trkpt>
      <trkpt lat="43.57946" lon="3.70014">
        <ele>183.28606</ele>
        <time>2014-05-19T15:43:22Z</time>
      </trkpt>
      <trkpt lat="43.57951" lon="3.69984">
        <ele>183.03868</ele>
        <time>2014-05-19T15:43:27Z</time>
      </trkpt>
      <trkpt lat="43.57951" lon="3.69957">
        <ele>183.00156</ele>
        <time>2014-05-19T15:43:31Z</time>
      </trkpt>
      <trkpt lat="43.57951" lon="3.6993">
        <ele>182.65714</ele>
        <time>2014-05-19T15:43:36Z</time>
      </trkpt>
      <trkpt lat="43.57949" lon="3.69905">
        <ele>181.96161</ele>
        <time>2014-05-19T15:43:41Z</time>
      </trkpt>
      <trkpt lat="43.57957" lon="3.69882">
        <ele>181.38083</ele>
        <time>2014-05-19T15:43:45Z</time>
      </trkpt>
      <trkpt lat="43.57968" lon="3.69854">
        <ele>182.01987</ele>
        <time>2014-05-19T15:43:50Z</time>
      </trkpt>
      <trkpt lat="43.57981" lon="3.69832">
        <ele>183.02737</ele>
        <time>2014-05-19T15:43:54Z</time>
      </trkpt>
      <trkpt lat="43.57991" lon="3.6981">
        <ele>182.01936</ele>
        <time>2014-05-19T15:43:57Z</time>
      </trkpt>
      <trkpt lat="43.58006" lon="3.6979">
        <ele>180.90535</ele>
        <time>2014-05-19T15:44:01Z</time>
      </trkpt>
      <trkpt lat="43.58022" lon="3.69775">
        <ele>180.03976</ele>
        <time>2014-05-19T15:44:04Z</time>
      </trkpt>
      <trkpt lat="43.58038" lon="3.69751">
        <ele>178.9661</ele>
        <time>2014-05-19T15:44:08Z</time>
      </trkpt>
      <trkpt lat="43.58053" lon="3.69736">
        <ele>178.3232</ele>
        <time>2014-05-19T15:44:11Z</time>
      </trkpt>
      <trkpt lat="43.5807" lon="3.69727">
        <ele>177.98166</ele>
        <time>2014-05-19T15:44:14Z</time>
      </trkpt>
      <trkpt lat="43.58091" lon="3.69718">
        <ele>177.77818</ele>
        <time>2014-05-19T15:44:18Z</time>
      </trkpt>
      <trkpt lat="43.58109" lon="3.69709">
        <ele>176.96892</ele>
        <time>2014-05-19T15:44:21Z</time>
      </trkpt>
      <trkpt lat="43.58124" lon="3.69696">
        <ele>175.24782</ele>
        <time>2014-05-19T15:44:24Z</time>
      </trkpt>
      <trkpt lat="43.58139" lon="3.69679">
        <ele>175.05923</ele>
        <time>2014-05-19T15:44:27Z</time>
      </trkpt>
      <trkpt lat="43.58159" lon="3.69673">
        <ele>174.70781</ele>
        <time>2014-05-19T15:44:30Z</time>
      </trkpt>
      <trkpt lat="43.58179" lon="3.69665">
        <ele>174.57048</ele>
        <time>2014-05-19T15:44:33Z</time>
      </trkpt>
      <trkpt lat="43.58195" lon="3.69649">
        <ele>174.52661</ele>
        <time>2014-05-19T15:44:36Z</time>
      </trkpt>
      <trkpt lat="43.58209" lon="3.69631">
        <ele>174.27216</ele>
        <time>2014-05-19T15:44:39Z</time>
      </trkpt>
      <trkpt lat="43.58221" lon="3.69611">
        <ele>174.26326</ele>
        <time>2014-05-19T15:44:42Z</time>
      </trkpt>
      <trkpt lat="43.58233" lon="3.69593">
        <ele>174.73763</ele>
        <time>2014-05-19T15:44:45Z</time>
      </trkpt>
      <trkpt lat="43.58243" lon="3.69572">
        <ele>175.16588</ele>
        <time>2014-05-19T15:44:48Z</time>
      </trkpt>
      <trkpt lat="43.58255" lon="3.6955">
        <ele>176.17514</ele>
        <time>2014-05-19T15:44:52Z</time>
      </trkpt>
      <trkpt lat="43.58267" lon="3.69528">
        <ele>178.80591</ele>
        <time>2014-05-19T15:44:57Z</time>
      </trkpt>
      <trkpt lat="43.58281" lon="3.69509">
        <ele>182.24257</ele>
        <time>2014-05-19T15:45:04Z</time>
      </trkpt>
      <trkpt lat="43.58292" lon="3.69484">
        <ele>187.87549</ele>
        <time>2014-05-19T15:45:11Z</time>
      </trkpt>
      <trkpt lat="43.58297" lon="3.69457">
        <ele>188.11583</ele>
        <time>2014-05-19T15:45:18Z</time>
      </trkpt>
      <trkpt lat="43.58302" lon="3.69433">
        <ele>188.70438</ele>
        <time>2014-05-19T15:45:25Z</time>
      </trkpt>
      <trkpt lat="43.58309" lon="3.69411">
        <ele>190.0763</ele>
        <time>2014-05-19T15:45:31Z</time>
      </trkpt>
      <trkpt lat="43.58323" lon="3.69392">
        <ele>191.72556</ele>
        <time>2014-05-19T15:45:38Z</time>
      </trkpt>
      <trkpt lat="43.58339" lon="3.69377">
        <ele>193.88396</ele>
        <time>2014-05-19T15:45:45Z</time>
      </trkpt>
      <trkpt lat="43.58357" lon="3.69365">
        <ele>194.46082</ele>
        <time>2014-05-19T15:45:53Z</time>
      </trkpt>
      <trkpt lat="43.58373" lon="3.69351">
        <ele>194.34319</ele>
        <time>2014-05-19T15:46:00Z</time>
      </trkpt>
      <trkpt lat="43.58389" lon="3.69337">
        <ele>194.56285</ele>
        <time>2014-05-19T15:46:07Z</time>
      </trkpt>
      <trkpt lat="43.58406" lon="3.69325">
        <ele>194.12755</ele>
        <time>2014-05-19T15:46:13Z</time>
      </trkpt>
      <trkpt lat="43.58421" lon="3.69305">
        <ele>194.44025</ele>
        <time>2014-05-19T15:46:20Z</time>
      </trkpt>
      <trkpt lat="43.58434" lon="3.69284">
        <ele>195.66728</ele>
        <time>2014-05-19T15:46:26Z</time>
      </trkpt>
      <trkpt lat="43.58449" lon="3.69268">
        <ele>194.78133</ele>
        <time>2014-05-19T15:46:32Z</time>
      </trkpt>
      <trkpt lat="43.58456" lon="3.69245">
        <ele>194.06026</ele>
        <time>2014-05-19T15:46:38Z</time>
      </trkpt>
      <trkpt lat="43.5846" lon="3.69219">
        <ele>193.38472</ele>
        <time>2014-05-19T15:46:44Z</time>
      </trkpt>
      <trkpt lat="43.58465" lon="3.69194">
        <ele>196.26227</ele>
        <time>2014-05-19T15:46:52Z</time>
      </trkpt>
      <trkpt lat="43.58472" lon="3.69171">
        <ele>198.12898</ele>
        <time>2014-05-19T15:46:59Z</time>
      </trkpt>
      <trkpt lat="43.5848" lon="3.69148">
        <ele>197.17358</ele>
        <time>2014-05-19T15:47:08Z</time>
      </trkpt>
      <trkpt lat="43.58487" lon="3.69123">
        <ele>199.19014</ele>
        <time>2014-05-19T15:47:17Z</time>
      </trkpt>
      <trkpt lat="43.58498" lon="3.69102">
        <ele>201.8267</ele>
        <time>2014-05-19T15:47:25Z</time>
      </trkpt>
      <trkpt lat="43.58512" lon="3.69082">
        <ele>203.43062</ele>
        <time>2014-05-19T15:47:32Z</time>
      </trkpt>
      <trkpt lat="43.5853" lon="3.69067">
        <ele>204.99248</ele>
        <time>2014-05-19T15:47:39Z</time>
      </trkpt>
      <trkpt lat="43.58547" lon="3.69049">
        <ele>206.6637</ele>
        <time>2014-05-19T15:47:46Z</time>
      </trkpt>
      <trkpt lat="43.58564" lon="3.69035">
        <ele>209.08629</ele>
        <time>2014-05-19T15:47:52Z</time>
      </trkpt>
      <trkpt lat="43.58581" lon="3.6902">
        <ele>209.1861</ele>
        <time>2014-05-19T15:47:57Z</time>
      </trkpt>
      <trkpt lat="43.58599" lon="3.69006">
        <ele>208.90842</ele>
        <time>2014-05-19T15:48:02Z</time>
      </trkpt>
      <trkpt lat="43.58619" lon="3.68991">
        <ele>207.47847</ele>
        <time>2014-05-19T15:48:07Z</time>
      </trkpt>
      <trkpt lat="43.58638" lon="3.68977">
        <ele>206.5424</ele>
        <time>2014-05-19T15:48:11Z</time>
      </trkpt>
      <trkpt lat="43.58656" lon="3.68956">
        <ele>206.11342</ele>
        <time>2014-05-19T15:48:15Z</time>
      </trkpt>
      <trkpt lat="43.58664" lon="3.68934">
        <ele>205.71347</ele>
        <time>2014-05-19T15:48:18Z</time>
      </trkpt>
      <trkpt lat="43.5867" lon="3.68906">
        <ele>204.83069</ele>
        <time>2014-05-19T15:48:21Z</time>
      </trkpt>
      <trkpt lat="43.58656" lon="3.68881">
        <ele>202.8476</ele>
        <time>2014-05-19T15:48:25Z</time>
      </trkpt>
      <trkpt lat="43.58637" lon="3.68871">
        <ele>199.7654</ele>
        <time>2014-05-19T15:48:28Z</time>
      </trkpt>
      <trkpt lat="43.58626" lon="3.68848">
        <ele>197.13696</ele>
        <time>2014-05-19T15:48:31Z</time>
      </trkpt>
      <trkpt lat="43.58632" lon="3.68817">
        <ele>195.03122</ele>
        <time>2014-05-19T15:48:34Z</time>
      </trkpt>
      <trkpt lat="43.58652" lon="3.68803">
        <ele>192.90536</ele>
        <time>2014-05-19T15:48:37Z</time>
      </trkpt>
      <trkpt lat="43.58669" lon="3.68782">
        <ele>190.89914</ele>
        <time>2014-05-19T15:48:40Z</time>
      </trkpt>
      <trkpt lat="43.58674" lon="3.68749">
        <ele>189.57776</ele>
        <time>2014-05-19T15:48:43Z</time>
      </trkpt>
      <trkpt lat="43.58678" lon="3.68715">
        <ele>187.61249</ele>
        <time>2014-05-19T15:48:46Z</time>
      </trkpt>
      <trkpt lat="43.58681" lon="3.68683">
        <ele>185.52402</ele>
        <time>2014-05-19T15:48:49Z</time>
      </trkpt>
      <trkpt lat="43.58673" lon="3.68651">
        <ele>183.15857</ele>
        <time>2014-05-19T15:48:52Z</time>
      </trkpt>
      <trkpt lat="43.58665" lon="3.68628">
        <ele>181.72044</ele>
        <time>2014-05-19T15:48:54Z</time>
      </trkpt>
      <trkpt lat="43.5867" lon="3.68598">
        <ele>181.05394</ele>
        <time>2014-05-19T15:48:57Z</time>
      </trkpt>
      <trkpt lat="43.5869" lon="3.6858">
        <ele>179.95848</ele>
        <time>2014-05-19T15:49:01Z</time>
      </trkpt>
      <trkpt lat="43.58702" lon="3.68555">
        <ele>178.36061</ele>
        <time>2014-05-19T15:49:04Z</time>
      </trkpt>
      <trkpt lat="43.587" lon="3.68526">
        <ele>177.3787</ele>
        <time>2014-05-19T15:49:07Z</time>
      </trkpt>
      <trkpt lat="43.58687" lon="3.68503">
        <ele>175.81758</ele>
        <time>2014-05-19T15:49:10Z</time>
      </trkpt>
      <trkpt lat="43.58674" lon="3.68485">
        <ele>174.28398</ele>
        <time>2014-05-19T15:49:13Z</time>
      </trkpt>
      <trkpt lat="43.58712" lon="3.68464">
        <ele>172.84021</ele>
        <time>2014-05-19T15:49:23Z</time>
      </trkpt>
      <trkpt lat="43.58729" lon="3.6848">
        <ele>173.64665</ele>
        <time>2014-05-19T15:49:26Z</time>
      </trkpt>
      <trkpt lat="43.5875" lon="3.68478">
        <ele>173.19156</ele>
        <time>2014-05-19T15:49:29Z</time>
      </trkpt>
      <trkpt lat="43.58764" lon="3.68459">
        <ele>170.90738</ele>
        <time>2014-05-19T15:49:32Z</time>
      </trkpt>
      <trkpt lat="43.58774" lon="3.68435">
        <ele>169.2125</ele>
        <time>2014-05-19T15:49:35Z</time>
      </trkpt>
      <trkpt lat="43.58783" lon="3.68411">
        <ele>167.83652</ele>
        <time>2014-05-19T15:49:38Z</time>
      </trkpt>
      <trkpt lat="43.58799" lon="3.68425">
        <ele>166.31075</ele>
        <time>2014-05-19T15:49:44Z</time>
      </trkpt>
      <trkpt lat="43.58801" lon="3.68452">
        <ele>168.51326</ele>
        <time>2014-05-19T15:49:52Z</time>
      </trkpt>
      <trkpt lat="43.58804" lon="3.68479">
        <ele>169.39577</ele>
        <time>2014-05-19T15:49:59Z</time>
      </trkpt>
      <trkpt lat="43.58803" lon="3.68508">
        <ele>169.87546</ele>
        <time>2014-05-19T15:50:06Z</time>
      </trkpt>
      <trkpt lat="43.58805" lon="3.68535">
        <ele>170.26482</ele>
        <time>2014-05-19T15:50:12Z</time>
      </trkpt>
      <trkpt lat="43.58806" lon="3.68562">
        <ele>171.78932</ele>
        <time>2014-05-19T15:50:19Z</time>
      </trkpt>
      <trkpt lat="43.5881" lon="3.68591">
        <ele>171.93825</ele>
        <time>2014-05-19T15:50:26Z</time>
      </trkpt>
      <trkpt lat="43.58823" lon="3.6861">
        <ele>174.63135</ele>
        <time>2014-05-19T15:50:33Z</time>
      </trkpt>
      <trkpt lat="43.58842" lon="3.68608">
        <ele>176.94781</ele>
        <time>2014-05-19T15:50:40Z</time>
      </trkpt>
      <trkpt lat="43.58861" lon="3.68603">
        <ele>178.32736</ele>
        <time>2014-05-19T15:50:47Z</time>
      </trkpt>
      <trkpt lat="43.58879" lon="3.68599">
        <ele>178.65096</ele>
        <time>2014-05-19T15:50:54Z</time>
      </trkpt>
      <trkpt lat="43.58898" lon="3.68591">
        <ele>178.53745</ele>
        <time>2014-05-19T15:51:02Z</time>
      </trkpt>
      <trkpt lat="43.58917" lon="3.68583">
        <ele>180.79253</ele>
        <time>2014-05-19T15:51:10Z</time>
      </trkpt>
      <trkpt lat="43.58935" lon="3.68575">
        <ele>182.24673</ele>
        <time>2014-05-19T15:51:17Z</time>
      </trkpt>
      <trkpt lat="43.58953" lon="3.68565">
        <ele>185.10524</ele>
        <time>2014-05-19T15:51:25Z</time>
      </trkpt>
      <trkpt lat="43.5897" lon="3.68555">
        <ele>186.43976</ele>
        <time>2014-05-19T15:51:32Z</time>
      </trkpt>
      <trkpt lat="43.58989" lon="3.68548">
        <ele>189.58427</ele>
        <time>2014-05-19T15:51:40Z</time>
      </trkpt>
      <trkpt lat="43.59007" lon="3.68544">
        <ele>190.34103</ele>
        <time>2014-05-19T15:51:47Z</time>
      </trkpt>
      <trkpt lat="43.59026" lon="3.68546">
        <ele>191.00842</ele>
        <time>2014-05-19T15:51:54Z</time>
      </trkpt>
      <trkpt lat="43.59013" lon="3.68526">
        <ele>197.51497</ele>
        <time>2014-05-19T15:52:13Z</time>
      </trkpt>
      <trkpt lat="43.58998" lon="3.68507">
        <ele>192.46297</ele>
        <time>2014-05-19T15:52:21Z</time>
      </trkpt>
      <trkpt lat="43.58989" lon="3.68485">
        <ele>192.2685</ele>
        <time>2014-05-19T15:52:29Z</time>
      </trkpt>
      <trkpt lat="43.58986" lon="3.68459">
        <ele>190.938</ele>
        <time>2014-05-19T15:52:37Z</time>
      </trkpt>
      <trkpt lat="43.58989" lon="3.68434">
        <ele>190.53392</ele>
        <time>2014-05-19T15:52:44Z</time>
      </trkpt>
      <trkpt lat="43.59001" lon="3.68413">
        <ele>190.12447</ele>
        <time>2014-05-19T15:52:50Z</time>
      </trkpt>
      <trkpt lat="43.59015" lon="3.68396">
        <ele>190.58345</ele>
        <time>2014-05-19T15:52:55Z</time>
      </trkpt>
      <trkpt lat="43.59028" lon="3.68376">
        <ele>189.29578</ele>
        <time>2014-05-19T15:53:00Z</time>
      </trkpt>
      <trkpt lat="43.59034" lon="3.68351">
        <ele>187.04121</ele>
        <time>2014-05-19T15:53:06Z</time>
      </trkpt>
      <trkpt lat="43.59015" lon="3.68346">
        <ele>186.50032</ele>
        <time>2014-05-19T15:53:16Z</time>
      </trkpt>
      <trkpt lat="43.58997" lon="3.68337">
        <ele>187.7614</ele>
        <time>2014-05-19T15:53:25Z</time>
      </trkpt>
      <trkpt lat="43.58981" lon="3.68325">
        <ele>188.68286</ele>
        <time>2014-05-19T15:53:35Z</time>
      </trkpt>
      <trkpt lat="43.58966" lon="3.68308">
        <ele>188.61185</ele>
        <time>2014-05-19T15:53:43Z</time>
      </trkpt>
      <trkpt lat="43.5895" lon="3.68291">
        <ele>189.01549</ele>
        <time>2014-05-19T15:53:52Z</time>
      </trkpt>
      <trkpt lat="43.58938" lon="3.68271">
        <ele>190.58029</ele>
        <time>2014-05-19T15:54:01Z</time>
      </trkpt>
      <trkpt lat="43.58927" lon="3.68251">
        <ele>191.23076</ele>
        <time>2014-05-19T15:54:09Z</time>
      </trkpt>
      <trkpt lat="43.58923" lon="3.68226">
        <ele>193.07707</ele>
        <time>2014-05-19T15:54:17Z</time>
      </trkpt>
      <trkpt lat="43.58924" lon="3.68197">
        <ele>195.17978</ele>
        <time>2014-05-19T15:54:25Z</time>
      </trkpt>
      <trkpt lat="43.58929" lon="3.68172">
        <ele>196.68489</ele>
        <time>2014-05-19T15:54:33Z</time>
      </trkpt>
      <trkpt lat="43.58933" lon="3.68147">
        <ele>194.4701</ele>
        <time>2014-05-19T15:54:43Z</time>
      </trkpt>
      <trkpt lat="43.58942" lon="3.6812">
        <ele>193.81396</ele>
        <time>2014-05-19T15:54:51Z</time>
      </trkpt>
      <trkpt lat="43.58947" lon="3.68095">
        <ele>197.06511</ele>
        <time>2014-05-19T15:55:02Z</time>
      </trkpt>
      <trkpt lat="43.58953" lon="3.68071">
        <ele>200.182</ele>
        <time>2014-05-19T15:55:14Z</time>
      </trkpt>
      <trkpt lat="43.5896" lon="3.68048">
        <ele>203.8761</ele>
        <time>2014-05-19T15:55:25Z</time>
      </trkpt>
      <trkpt lat="43.58969" lon="3.68024">
        <ele>203.04622</ele>
        <time>2014-05-19T15:55:35Z</time>
      </trkpt>
      <trkpt lat="43.58975" lon="3.67999">
        <ele>209.98337</ele>
        <time>2014-05-19T15:55:48Z</time>
      </trkpt>
      <trkpt lat="43.58981" lon="3.67975">
        <ele>213.60457</ele>
        <time>2014-05-19T15:56:25Z</time>
      </trkpt>
      <trkpt lat="43.58991" lon="3.67953">
        <ele>215.18753</ele>
        <time>2014-05-19T15:56:34Z</time>
      </trkpt>
      <trkpt lat="43.59003" lon="3.67932">
        <ele>220.65125</ele>
        <time>2014-05-19T15:56:46Z</time>
      </trkpt>
      <trkpt lat="43.59017" lon="3.67916">
        <ele>220.82198</ele>
        <time>2014-05-19T15:56:56Z</time>
      </trkpt>
      <trkpt lat="43.59032" lon="3.679">
        <ele>222.02429</ele>
        <time>2014-05-19T15:57:06Z</time>
      </trkpt>
      <trkpt lat="43.59047" lon="3.67885">
        <ele>223.5769</ele>
        <time>2014-05-19T15:57:18Z</time>
      </trkpt>
      <trkpt lat="43.59062" lon="3.67871">
        <ele>225.38928</ele>
        <time>2014-05-19T15:57:28Z</time>
      </trkpt>
      <trkpt lat="43.59078" lon="3.67857">
        <ele>224.91275</ele>
        <time>2014-05-19T15:57:37Z</time>
      </trkpt>
      <trkpt lat="43.59095" lon="3.67845">
        <ele>228.35591</ele>
        <time>2014-05-19T15:57:49Z</time>
      </trkpt>
      <trkpt lat="43.59113" lon="3.67838">
        <ele>229.9423</ele>
        <time>2014-05-19T15:58:00Z</time>
      </trkpt>
      <trkpt lat="43.59131" lon="3.67835">
        <ele>227.00043</ele>
        <time>2014-05-19T15:58:12Z</time>
      </trkpt>
      <trkpt lat="43.59149" lon="3.67836">
        <ele>228.13916</ele>
        <time>2014-05-19T15:58:23Z</time>
      </trkpt>
      <trkpt lat="43.59168" lon="3.6783">
        <ele>231.98111</ele>
        <time>2014-05-19T15:58:33Z</time>
      </trkpt>
      <trkpt lat="43.59184" lon="3.67818">
        <ele>234.96468</ele>
        <time>2014-05-19T15:58:44Z</time>
      </trkpt>
      <trkpt lat="43.59201" lon="3.67805">
        <ele>237.11072</ele>
        <time>2014-05-19T15:58:55Z</time>
      </trkpt>
      <trkpt lat="43.59212" lon="3.67784">
        <ele>236.76303</ele>
        <time>2014-05-19T15:59:05Z</time>
      </trkpt>
      <trkpt lat="43.59222" lon="3.67763">
        <ele>240.87051</ele>
        <time>2014-05-19T15:59:16Z</time>
      </trkpt>
      <trkpt lat="43.59232" lon="3.67742">
        <ele>244.79303</ele>
        <time>2014-05-19T15:59:26Z</time>
      </trkpt>
      <trkpt lat="43.59237" lon="3.67716">
        <ele>245.08249</ele>
        <time>2014-05-19T15:59:36Z</time>
      </trkpt>
      <trkpt lat="43.59234" lon="3.67688">
        <ele>243.32996</ele>
        <time>2014-05-19T15:59:44Z</time>
      </trkpt>
      <trkpt lat="43.59227" lon="3.67665">
        <ele>243.86055</ele>
        <time>2014-05-19T15:59:51Z</time>
      </trkpt>
      <trkpt lat="43.59221" lon="3.67641">
        <ele>243.72713</ele>
        <time>2014-05-19T15:59:57Z</time>
      </trkpt>
      <trkpt lat="43.59216" lon="3.67615">
        <ele>243.18787</ele>
        <time>2014-05-19T16:00:03Z</time>
      </trkpt>
      <trkpt lat="43.59217" lon="3.67588">
        <ele>242.44496</ele>
        <time>2014-05-19T16:00:09Z</time>
      </trkpt>
      <trkpt lat="43.59222" lon="3.67563">
        <ele>241.71774</ele>
        <time>2014-05-19T16:00:15Z</time>
      </trkpt>
      <trkpt lat="43.59231" lon="3.67539">
        <ele>245.36534</ele>
        <time>2014-05-19T16:00:24Z</time>
      </trkpt>
      <trkpt lat="43.59219" lon="3.67561">
        <ele>251.14333</ele>
        <time>2014-05-19T16:02:12Z</time>
      </trkpt>
      <trkpt lat="43.59215" lon="3.67586">
        <ele>248.36136</ele>
        <time>2014-05-19T16:02:17Z</time>
      </trkpt>
      <trkpt lat="43.59214" lon="3.67615">
        <ele>246.53067</ele>
        <time>2014-05-19T16:02:22Z</time>
      </trkpt>
      <trkpt lat="43.59219" lon="3.6764">
        <ele>245.86908</ele>
        <time>2014-05-19T16:02:26Z</time>
      </trkpt>
      <trkpt lat="43.59227" lon="3.67667">
        <ele>245.63426</ele>
        <time>2014-05-19T16:02:31Z</time>
      </trkpt>
      <trkpt lat="43.59235" lon="3.67694">
        <ele>245.22404</ele>
        <time>2014-05-19T16:02:36Z</time>
      </trkpt>
      <trkpt lat="43.59239" lon="3.67722">
        <ele>242.2396</ele>
        <time>2014-05-19T16:02:41Z</time>
      </trkpt>
      <trkpt lat="43.59227" lon="3.67747">
        <ele>239.95042</ele>
        <time>2014-05-19T16:02:45Z</time>
      </trkpt>
      <trkpt lat="43.59212" lon="3.67772">
        <ele>237.90189</ele>
        <time>2014-05-19T16:02:49Z</time>
      </trkpt>
      <trkpt lat="43.59201" lon="3.67792">
        <ele>237.12111</ele>
        <time>2014-05-19T16:02:52Z</time>
      </trkpt>
      <trkpt lat="43.59183" lon="3.6781">
        <ele>236.71059</ele>
        <time>2014-05-19T16:02:56Z</time>
      </trkpt>
      <trkpt lat="43.59159" lon="3.67821">
        <ele>236.84671</ele>
        <time>2014-05-19T16:03:00Z</time>
      </trkpt>
      <trkpt lat="43.59139" lon="3.67828">
        <ele>234.40463</ele>
        <time>2014-05-19T16:03:04Z</time>
      </trkpt>
      <trkpt lat="43.59117" lon="3.6783">
        <ele>231.58936</ele>
        <time>2014-05-19T16:03:08Z</time>
      </trkpt>
      <trkpt lat="43.59096" lon="3.67833">
        <ele>229.98764</ele>
        <time>2014-05-19T16:03:12Z</time>
      </trkpt>
      <trkpt lat="43.59078" lon="3.67849">
        <ele>228.69258</ele>
        <time>2014-05-19T16:03:16Z</time>
      </trkpt>
      <trkpt lat="43.59059" lon="3.67866">
        <ele>227.13554</ele>
        <time>2014-05-19T16:03:20Z</time>
      </trkpt>
      <trkpt lat="43.5904" lon="3.67883">
        <ele>225.44211</ele>
        <time>2014-05-19T16:03:24Z</time>
      </trkpt>
      <trkpt lat="43.59021" lon="3.67903">
        <ele>224.08676</ele>
        <time>2014-05-19T16:03:28Z</time>
      </trkpt>
      <trkpt lat="43.59004" lon="3.67925">
        <ele>222.8419</ele>
        <time>2014-05-19T16:03:32Z</time>
      </trkpt>
      <trkpt lat="43.58991" lon="3.67943">
        <ele>221.37706</ele>
        <time>2014-05-19T16:03:35Z</time>
      </trkpt>
      <trkpt lat="43.5898" lon="3.6797">
        <ele>219.98923</ele>
        <time>2014-05-19T16:03:39Z</time>
      </trkpt>
      <trkpt lat="43.58972" lon="3.67999">
        <ele>217.73175</ele>
        <time>2014-05-19T16:03:43Z</time>
      </trkpt>
      <trkpt lat="43.58963" lon="3.6803">
        <ele>214.5534</ele>
        <time>2014-05-19T16:03:47Z</time>
      </trkpt>
      <trkpt lat="43.58957" lon="3.68056">
        <ele>212.06316</ele>
        <time>2014-05-19T16:03:50Z</time>
      </trkpt>
      <trkpt lat="43.5895" lon="3.6808">
        <ele>209.86415</ele>
        <time>2014-05-19T16:03:53Z</time>
      </trkpt>
      <trkpt lat="43.58943" lon="3.68104">
        <ele>207.84581</ele>
        <time>2014-05-19T16:03:56Z</time>
      </trkpt>
      <trkpt lat="43.58937" lon="3.68128">
        <ele>205.88182</ele>
        <time>2014-05-19T16:03:59Z</time>
      </trkpt>
      <trkpt lat="43.58931" lon="3.68152">
        <ele>203.65015</ele>
        <time>2014-05-19T16:04:02Z</time>
      </trkpt>
      <trkpt lat="43.58927" lon="3.68177">
        <ele>201.87741</ele>
        <time>2014-05-19T16:04:05Z</time>
      </trkpt>
      <trkpt lat="43.58923" lon="3.68209">
        <ele>199.83504</ele>
        <time>2014-05-19T16:04:09Z</time>
      </trkpt>
      <trkpt lat="43.58925" lon="3.6824">
        <ele>198.12631</ele>
        <time>2014-05-19T16:04:13Z</time>
      </trkpt>
      <trkpt lat="43.58933" lon="3.68263">
        <ele>197.0783</ele>
        <time>2014-05-19T16:04:16Z</time>
      </trkpt>
      <trkpt lat="43.58946" lon="3.68283">
        <ele>196.18616</ele>
        <time>2014-05-19T16:04:19Z</time>
      </trkpt>
      <trkpt lat="43.58962" lon="3.68301">
        <ele>195.39885</ele>
        <time>2014-05-19T16:04:22Z</time>
      </trkpt>
      <trkpt lat="43.58976" lon="3.68317">
        <ele>194.1792</ele>
        <time>2014-05-19T16:04:25Z</time>
      </trkpt>
      <trkpt lat="43.58992" lon="3.68333">
        <ele>192.76608</ele>
        <time>2014-05-19T16:04:29Z</time>
      </trkpt>
      <trkpt lat="43.59013" lon="3.68345">
        <ele>190.7588</ele>
        <time>2014-05-19T16:04:33Z</time>
      </trkpt>
      <trkpt lat="43.59031" lon="3.68352">
        <ele>189.71347</ele>
        <time>2014-05-19T16:04:38Z</time>
      </trkpt>
      <trkpt lat="43.59025" lon="3.68376">
        <ele>189.29698</ele>
        <time>2014-05-19T16:04:55Z</time>
      </trkpt>
      <trkpt lat="43.59008" lon="3.6839">
        <ele>192.96892</ele>
        <time>2014-05-19T16:05:05Z</time>
      </trkpt>
      <trkpt lat="43.58996" lon="3.6841">
        <ele>195.23926</ele>
        <time>2014-05-19T16:05:12Z</time>
      </trkpt>
      <trkpt lat="43.58988" lon="3.68433">
        <ele>196.33946</ele>
        <time>2014-05-19T16:05:19Z</time>
      </trkpt>
      <trkpt lat="43.58988" lon="3.68462">
        <ele>197.892</ele>
        <time>2014-05-19T16:05:28Z</time>
      </trkpt>
      <trkpt lat="43.58995" lon="3.6849">
        <ele>196.80396</ele>
        <time>2014-05-19T16:05:34Z</time>
      </trkpt>
      <trkpt lat="43.59106" lon="3.68597">
        <ele>199.675</ele>
        <time>2014-05-19T16:06:14Z</time>
      </trkpt>
      <trkpt lat="43.59113" lon="3.68623">
        <ele>193.68341</ele>
        <time>2014-05-19T16:06:21Z</time>
      </trkpt>
      <trkpt lat="43.59131" lon="3.68633">
        <ele>194.45288</ele>
        <time>2014-05-19T16:06:27Z</time>
      </trkpt>
      <trkpt lat="43.5915" lon="3.68645">
        <ele>195.40562</ele>
        <time>2014-05-19T16:06:35Z</time>
      </trkpt>
      <trkpt lat="43.59153" lon="3.68672">
        <ele>205.63554</ele>
        <time>2014-05-19T16:06:47Z</time>
      </trkpt>
      <trkpt lat="43.5916" lon="3.68696">
        <ele>206.06062</ele>
        <time>2014-05-19T16:06:54Z</time>
      </trkpt>
      <trkpt lat="43.59166" lon="3.68722">
        <ele>205.66795</ele>
        <time>2014-05-19T16:07:02Z</time>
      </trkpt>
      <trkpt lat="43.59179" lon="3.6874">
        <ele>212.7196</ele>
        <time>2014-05-19T16:07:12Z</time>
      </trkpt>
      <trkpt lat="43.59187" lon="3.68764">
        <ele>217.80267</ele>
        <time>2014-05-19T16:07:21Z</time>
      </trkpt>
      <trkpt lat="43.59197" lon="3.68786">
        <ele>215.67448</ele>
        <time>2014-05-19T16:07:31Z</time>
      </trkpt>
      <trkpt lat="43.59203" lon="3.68813">
        <ele>215.68156</ele>
        <time>2014-05-19T16:07:41Z</time>
      </trkpt>
      <trkpt lat="43.59218" lon="3.68828">
        <ele>212.93924</ele>
        <time>2014-05-19T16:07:51Z</time>
      </trkpt>
      <trkpt lat="43.59225" lon="3.68805">
        <ele>214.49564</ele>
        <time>2014-05-19T16:08:04Z</time>
      </trkpt>
      <trkpt lat="43.59222" lon="3.6878">
        <ele>212.96191</ele>
        <time>2014-05-19T16:08:15Z</time>
      </trkpt>
      <trkpt lat="43.5922" lon="3.68755">
        <ele>215.30255</ele>
        <time>2014-05-19T16:08:27Z</time>
      </trkpt>
      <trkpt lat="43.59226" lon="3.68729">
        <ele>216.62714</ele>
        <time>2014-05-19T16:08:34Z</time>
      </trkpt>
      <trkpt lat="43.59231" lon="3.68704">
        <ele>220.52603</ele>
        <time>2014-05-19T16:08:43Z</time>
      </trkpt>
      <trkpt lat="43.59241" lon="3.68682">
        <ele>221.923</ele>
        <time>2014-05-19T16:08:51Z</time>
      </trkpt>
      <trkpt lat="43.59255" lon="3.68664">
        <ele>223.3478</ele>
        <time>2014-05-19T16:08:59Z</time>
      </trkpt>
      <trkpt lat="43.59271" lon="3.68652">
        <ele>224.28693</ele>
        <time>2014-05-19T16:09:04Z</time>
      </trkpt>
      <trkpt lat="43.59289" lon="3.68638">
        <ele>226.2278</ele>
        <time>2014-05-19T16:09:12Z</time>
      </trkpt>
      <trkpt lat="43.59306" lon="3.68626">
        <ele>227.7951</ele>
        <time>2014-05-19T16:09:20Z</time>
      </trkpt>
      <trkpt lat="43.59324" lon="3.68625">
        <ele>228.65646</ele>
        <time>2014-05-19T16:10:18Z</time>
      </trkpt>
      <trkpt lat="43.59342" lon="3.68622">
        <ele>232.76459</ele>
        <time>2014-05-19T16:10:49Z</time>
      </trkpt>
      <trkpt lat="43.59359" lon="3.68634">
        <ele>233.29787</ele>
        <time>2014-05-19T16:11:06Z</time>
      </trkpt>
      <trkpt lat="43.59371" lon="3.68654">
        <ele>239.41</ele>
        <time>2014-05-19T16:11:16Z</time>
      </trkpt>
      <trkpt lat="43.5939" lon="3.68664">
        <ele>237.8264</ele>
        <time>2014-05-19T16:11:24Z</time>
      </trkpt>
      <trkpt lat="43.59409" lon="3.68667">
        <ele>239.54033</ele>
        <time>2014-05-19T16:11:32Z</time>
      </trkpt>
      <trkpt lat="43.59427" lon="3.6867">
        <ele>239.63106</ele>
        <time>2014-05-19T16:11:39Z</time>
      </trkpt>
      <trkpt lat="43.59445" lon="3.68676">
        <ele>239.62006</ele>
        <time>2014-05-19T16:11:47Z</time>
      </trkpt>
      <trkpt lat="43.59462" lon="3.68691">
        <ele>242.58789</ele>
        <time>2014-05-19T16:11:57Z</time>
      </trkpt>
      <trkpt lat="43.59481" lon="3.68696">
        <ele>243.82503</ele>
        <time>2014-05-19T16:12:04Z</time>
      </trkpt>
      <trkpt lat="43.59499" lon="3.68702">
        <ele>246.05737</ele>
        <time>2014-05-19T16:12:12Z</time>
      </trkpt>
      <trkpt lat="43.59518" lon="3.68705">
        <ele>246.09235</ele>
        <time>2014-05-19T16:12:20Z</time>
      </trkpt>
      <trkpt lat="43.59535" lon="3.68718">
        <ele>239.71016</ele>
        <time>2014-05-19T16:12:29Z</time>
      </trkpt>
      <trkpt lat="43.59554" lon="3.6872">
        <ele>236.50786</ele>
        <time>2014-05-19T16:12:36Z</time>
      </trkpt>
      <trkpt lat="43.59569" lon="3.68737">
        <ele>233.50966</ele>
        <time>2014-05-19T16:12:42Z</time>
      </trkpt>
      <trkpt lat="43.59586" lon="3.68747">
        <ele>231.27379</ele>
        <time>2014-05-19T16:12:48Z</time>
      </trkpt>
      <trkpt lat="43.59605" lon="3.68753">
        <ele>230.76517</ele>
        <time>2014-05-19T16:12:53Z</time>
      </trkpt>
      <trkpt lat="43.59624" lon="3.68759">
        <ele>232.34496</ele>
        <time>2014-05-19T16:12:58Z</time>
      </trkpt>
      <trkpt lat="43.5964" lon="3.68778">
        <ele>237.44905</ele>
        <time>2014-05-19T16:13:03Z</time>
      </trkpt>
      <trkpt lat="43.59661" lon="3.68782">
        <ele>236.76915</ele>
        <time>2014-05-19T16:13:09Z</time>
      </trkpt>
      <trkpt lat="43.59679" lon="3.68783">
        <ele>232.66777</ele>
        <time>2014-05-19T16:13:15Z</time>
      </trkpt>
      <trkpt lat="43.59699" lon="3.68779">
        <ele>226.97107</ele>
        <time>2014-05-19T16:13:23Z</time>
      </trkpt>
      <trkpt lat="43.59717" lon="3.6877">
        <ele>221.99835</ele>
        <time>2014-05-19T16:13:31Z</time>
      </trkpt>
      <trkpt lat="43.59734" lon="3.6876">
        <ele>216.2076</ele>
        <time>2014-05-19T16:13:38Z</time>
      </trkpt>
      <trkpt lat="43.59755" lon="3.6877">
        <ele>212.40466</ele>
        <time>2014-05-19T16:13:48Z</time>
      </trkpt>
      <trkpt lat="43.59771" lon="3.68782">
        <ele>217.98973</ele>
        <time>2014-05-19T16:14:00Z</time>
      </trkpt>
      <trkpt lat="43.5979" lon="3.68789">
        <ele>218.93599</ele>
        <time>2014-05-19T16:14:06Z</time>
      </trkpt>
      <trkpt lat="43.59806" lon="3.68803">
        <ele>220.51581</ele>
        <time>2014-05-19T16:14:12Z</time>
      </trkpt>
      <trkpt lat="43.59823" lon="3.68814">
        <ele>223.33731</ele>
        <time>2014-05-19T16:14:19Z</time>
      </trkpt>
      <trkpt lat="43.59843" lon="3.68816">
        <ele>225.09068</ele>
        <time>2014-05-19T16:14:26Z</time>
      </trkpt>
      <trkpt lat="43.59861" lon="3.68812">
        <ele>226.94098</ele>
        <time>2014-05-19T16:14:35Z</time>
      </trkpt>
      <trkpt lat="43.59879" lon="3.68803">
        <ele>223.7996</ele>
        <time>2014-05-19T16:14:42Z</time>
      </trkpt>
      <trkpt lat="43.59895" lon="3.68787">
        <ele>220.38988</ele>
        <time>2014-05-19T16:14:48Z</time>
      </trkpt>
      <trkpt lat="43.59913" lon="3.68775">
        <ele>221.8053</ele>
        <time>2014-05-19T16:14:55Z</time>
      </trkpt>
      <trkpt lat="43.59932" lon="3.68764">
        <ele>224.02321</ele>
        <time>2014-05-19T16:15:01Z</time>
      </trkpt>
      <trkpt lat="43.59947" lon="3.68743">
        <ele>223.17337</ele>
        <time>2014-05-19T16:15:06Z</time>
      </trkpt>
      <trkpt lat="43.59959" lon="3.68725">
        <ele>221.07985</ele>
        <time>2014-05-19T16:15:10Z</time>
      </trkpt>
      <trkpt lat="43.59971" lon="3.68701">
        <ele>219.24167</ele>
        <time>2014-05-19T16:15:14Z</time>
      </trkpt>
      <trkpt lat="43.59978" lon="3.68676">
        <ele>216.82999</ele>
        <time>2014-05-19T16:15:18Z</time>
      </trkpt>
      <trkpt lat="43.59995" lon="3.68664">
        <ele>212.8135</ele>
        <time>2014-05-19T16:15:26Z</time>
      </trkpt>
      <trkpt lat="43.60013" lon="3.68656">
        <ele>200.18117</ele>
        <time>2014-05-19T16:15:37Z</time>
      </trkpt>
      <trkpt lat="43.60031" lon="3.68647">
        <ele>195.91069</ele>
        <time>2014-05-19T16:15:44Z</time>
      </trkpt>
      <trkpt lat="43.60051" lon="3.68636">
        <ele>193.85039</ele>
        <time>2014-05-19T16:15:49Z</time>
      </trkpt>
      <trkpt lat="43.60071" lon="3.68636">
        <ele>198.75671</ele>
        <time>2014-05-19T16:15:57Z</time>
      </trkpt>
      <trkpt lat="43.60092" lon="3.68639">
        <ele>198.0334</ele>
        <time>2014-05-19T16:16:03Z</time>
      </trkpt>
      <trkpt lat="43.60114" lon="3.68639">
        <ele>196.91408</ele>
        <time>2014-05-19T16:16:08Z</time>
      </trkpt>
      <trkpt lat="43.60134" lon="3.68633">
        <ele>194.959</ele>
        <time>2014-05-19T16:16:13Z</time>
      </trkpt>
      <trkpt lat="43.60151" lon="3.68617">
        <ele>195.58751</ele>
        <time>2014-05-19T16:16:19Z</time>
      </trkpt>
      <trkpt lat="43.60168" lon="3.68599">
        <ele>195.20879</ele>
        <time>2014-05-19T16:16:24Z</time>
      </trkpt>
      <trkpt lat="43.60181" lon="3.68578">
        <ele>197.5634</ele>
        <time>2014-05-19T16:16:34Z</time>
      </trkpt>
      <trkpt lat="43.602" lon="3.68576">
        <ele>197.20256</ele>
        <time>2014-05-19T16:16:42Z</time>
      </trkpt>
      <trkpt lat="43.6022" lon="3.68574">
        <ele>197.58022</ele>
        <time>2014-05-19T16:16:52Z</time>
      </trkpt>
      <trkpt lat="43.6024" lon="3.68582">
        <ele>194.78003</ele>
        <time>2014-05-19T16:16:59Z</time>
      </trkpt>
      <trkpt lat="43.60257" lon="3.68595">
        <ele>193.59766</ele>
        <time>2014-05-19T16:17:07Z</time>
      </trkpt>
      <trkpt lat="43.60272" lon="3.68577">
        <ele>188.77391</ele>
        <time>2014-05-19T16:17:22Z</time>
      </trkpt>
      <trkpt lat="43.6028" lon="3.68552">
        <ele>186.92099</ele>
        <time>2014-05-19T16:17:32Z</time>
      </trkpt>
      <trkpt lat="43.60282" lon="3.68524">
        <ele>186.2742</ele>
        <time>2014-05-19T16:17:40Z</time>
      </trkpt>
      <trkpt lat="43.60275" lon="3.68499">
        <ele>192.10233</ele>
        <time>2014-05-19T16:17:56Z</time>
      </trkpt>
      <trkpt lat="43.60264" lon="3.68477">
        <ele>192.0029</ele>
        <time>2014-05-19T16:18:06Z</time>
      </trkpt>
      <trkpt lat="43.60246" lon="3.6847">
        <ele>193.23586</ele>
        <time>2014-05-19T16:18:16Z</time>
      </trkpt>
      <trkpt lat="43.6023" lon="3.68459">
        <ele>195.77986</ele>
        <time>2014-05-19T16:18:29Z</time>
      </trkpt>
      <trkpt lat="43.60212" lon="3.68449">
        <ele>196.96269</ele>
        <time>2014-05-19T16:18:40Z</time>
      </trkpt>
      <trkpt lat="43.60196" lon="3.6843">
        <ele>201.54086</ele>
        <time>2014-05-19T16:18:52Z</time>
      </trkpt>
      <trkpt lat="43.60185" lon="3.68408">
        <ele>199.68738</ele>
        <time>2014-05-19T16:19:02Z</time>
      </trkpt>
      <trkpt lat="43.60176" lon="3.68383">
        <ele>205.2809</ele>
        <time>2014-05-19T16:19:14Z</time>
      </trkpt>
      <trkpt lat="43.60165" lon="3.68362">
        <ele>205.63713</ele>
        <time>2014-05-19T16:19:26Z</time>
      </trkpt>
      <trkpt lat="43.60151" lon="3.68344">
        <ele>207.41183</ele>
        <time>2014-05-19T16:19:35Z</time>
      </trkpt>
      <trkpt lat="43.60142" lon="3.68321">
        <ele>210.29468</ele>
        <time>2014-05-19T16:19:46Z</time>
      </trkpt>
      <trkpt lat="43.60125" lon="3.68316">
        <ele>212.24013</ele>
        <time>2014-05-19T16:20:07Z</time>
      </trkpt>
      <trkpt lat="43.60121" lon="3.68342">
        <ele>214.9449</ele>
        <time>2014-05-19T16:20:23Z</time>
      </trkpt>
      <trkpt lat="43.6011" lon="3.68362">
        <ele>214.49458</ele>
        <time>2014-05-19T16:20:37Z</time>
      </trkpt>
      <trkpt lat="43.60096" lon="3.68381">
        <ele>214.45851</ele>
        <time>2014-05-19T16:20:52Z</time>
      </trkpt>
      <trkpt lat="43.6008" lon="3.68392">
        <ele>216.8784</ele>
        <time>2014-05-19T16:21:25Z</time>
      </trkpt>
      <trkpt lat="43.60067" lon="3.68411">
        <ele>219.64963</ele>
        <time>2014-05-19T16:21:52Z</time>
      </trkpt>
      <trkpt lat="43.60051" lon="3.68425">
        <ele>220.43552</ele>
        <time>2014-05-19T16:22:05Z</time>
      </trkpt>
      <trkpt lat="43.60034" lon="3.68436">
        <ele>219.78244</ele>
        <time>2014-05-19T16:22:23Z</time>
      </trkpt>
      <trkpt lat="43.60019" lon="3.68448">
        <ele>222.75012</ele>
        <time>2014-05-19T16:22:34Z</time>
      </trkpt>
      <trkpt lat="43.60009" lon="3.68426">
        <ele>232.09187</ele>
        <time>2014-05-19T16:22:55Z</time>
      </trkpt>
      <trkpt lat="43.59995" lon="3.6841">
        <ele>233.84686</ele>
        <time>2014-05-19T16:23:07Z</time>
      </trkpt>
      <trkpt lat="43.59977" lon="3.68403">
        <ele>234.1702</ele>
        <time>2014-05-19T16:23:19Z</time>
      </trkpt>
      <trkpt lat="43.59957" lon="3.68401">
        <ele>232.08951</ele>
        <time>2014-05-19T16:23:31Z</time>
      </trkpt>
      <trkpt lat="43.59939" lon="3.68391">
        <ele>232.62169</ele>
        <time>2014-05-19T16:23:40Z</time>
      </trkpt>
      <trkpt lat="43.59922" lon="3.68379">
        <ele>234.77675</ele>
        <time>2014-05-19T16:23:48Z</time>
      </trkpt>
      <trkpt lat="43.59902" lon="3.68377">
        <ele>237.5538</ele>
        <time>2014-05-19T16:23:59Z</time>
      </trkpt>
      <trkpt lat="43.59885" lon="3.68368">
        <ele>242.70575</ele>
        <time>2014-05-19T16:24:12Z</time>
      </trkpt>
      <trkpt lat="43.59867" lon="3.68356">
        <ele>244.11926</ele>
        <time>2014-05-19T16:24:24Z</time>
      </trkpt>
      <trkpt lat="43.59863" lon="3.68332">
        <ele>244.22124</ele>
        <time>2014-05-19T16:24:37Z</time>
      </trkpt>
      <trkpt lat="43.59847" lon="3.68318">
        <ele>241.02159</ele>
        <time>2014-05-19T16:24:50Z</time>
      </trkpt>
      <trkpt lat="43.59829" lon="3.68304">
        <ele>239.69179</ele>
        <time>2014-05-19T16:24:56Z</time>
      </trkpt>
      <trkpt lat="43.59817" lon="3.68281">
        <ele>240.3662</ele>
        <time>2014-05-19T16:25:02Z</time>
      </trkpt>
      <trkpt lat="43.5981" lon="3.68257">
        <ele>238.72362</ele>
        <time>2014-05-19T16:25:07Z</time>
      </trkpt>
      <trkpt lat="43.59802" lon="3.68234">
        <ele>239.19827</ele>
        <time>2014-05-19T16:25:12Z</time>
      </trkpt>
      <trkpt lat="43.59794" lon="3.68212">
        <ele>240.13045</ele>
        <time>2014-05-19T16:25:17Z</time>
      </trkpt>
      <trkpt lat="43.59781" lon="3.68188">
        <ele>241.0798</ele>
        <time>2014-05-19T16:25:23Z</time>
      </trkpt>
      <trkpt lat="43.5977" lon="3.68167">
        <ele>241.6872</ele>
        <time>2014-05-19T16:25:28Z</time>
      </trkpt>
      <trkpt lat="43.59762" lon="3.68144">
        <ele>242.33359</ele>
        <time>2014-05-19T16:25:33Z</time>
      </trkpt>
      <trkpt lat="43.59753" lon="3.68121">
        <ele>243.12906</ele>
        <time>2014-05-19T16:25:38Z</time>
      </trkpt>
      <trkpt lat="43.59746" lon="3.68097">
        <ele>245.61768</ele>
        <time>2014-05-19T16:25:44Z</time>
      </trkpt>
      <trkpt lat="43.59744" lon="3.6807">
        <ele>246.53104</ele>
        <time>2014-05-19T16:25:53Z</time>
      </trkpt>
      <trkpt lat="43.59735" lon="3.68047">
        <ele>248.8792</ele>
        <time>2014-05-19T16:26:04Z</time>
      </trkpt>
      <trkpt lat="43.59718" lon="3.68029">
        <ele>249.56038</ele>
        <time>2014-05-19T16:26:14Z</time>
      </trkpt>
      <trkpt lat="43.59703" lon="3.68014">
        <ele>250.45671</ele>
        <time>2014-05-19T16:26:25Z</time>
      </trkpt>
      <trkpt lat="43.59684" lon="3.68002">
        <ele>253.8028</ele>
        <time>2014-05-19T16:26:36Z</time>
      </trkpt>
      <trkpt lat="43.59666" lon="3.68005">
        <ele>254.85693</ele>
        <time>2014-05-19T16:26:46Z</time>
      </trkpt>
      <trkpt lat="43.59652" lon="3.68022">
        <ele>258.62204</ele>
        <time>2014-05-19T16:26:54Z</time>
      </trkpt>
      <trkpt lat="43.59642" lon="3.68046">
        <ele>259.3447</ele>
        <time>2014-05-19T16:27:02Z</time>
      </trkpt>
      <trkpt lat="43.59633" lon="3.68069">
        <ele>258.85797</ele>
        <time>2014-05-19T16:27:10Z</time>
      </trkpt>
      <trkpt lat="43.59631" lon="3.68094">
        <ele>263.76413</ele>
        <time>2014-05-19T16:27:17Z</time>
      </trkpt>
      <trkpt lat="43.59628" lon="3.68123">
        <ele>263.28833</ele>
        <time>2014-05-19T16:27:23Z</time>
      </trkpt>
      <trkpt lat="43.59629" lon="3.6815">
        <ele>263.95084</ele>
        <time>2014-05-19T16:27:28Z</time>
      </trkpt>
      <trkpt lat="43.59628" lon="3.68176">
        <ele>264.81415</ele>
        <time>2014-05-19T16:27:32Z</time>
      </trkpt>
      <trkpt lat="43.59627" lon="3.68202">
        <ele>264.59705</ele>
        <time>2014-05-19T16:27:36Z</time>
      </trkpt>
      <trkpt lat="43.59621" lon="3.68228">
        <ele>264.17383</ele>
        <time>2014-05-19T16:27:41Z</time>
      </trkpt>
      <trkpt lat="43.59601" lon="3.68236">
        <ele>263.35968</ele>
        <time>2014-05-19T16:27:45Z</time>
      </trkpt>
      <trkpt lat="43.59579" lon="3.68232">
        <ele>261.481</ele>
        <time>2014-05-19T16:27:49Z</time>
      </trkpt>
      <trkpt lat="43.59558" lon="3.68223">
        <ele>261.07056</ele>
        <time>2014-05-19T16:27:53Z</time>
      </trkpt>
      <trkpt lat="43.5954" lon="3.68214">
        <ele>260.51572</ele>
        <time>2014-05-19T16:27:56Z</time>
      </trkpt>
      <trkpt lat="43.59518" lon="3.68211">
        <ele>257.96863</ele>
        <time>2014-05-19T16:28:00Z</time>
      </trkpt>
      <trkpt lat="43.59495" lon="3.68211">
        <ele>255.03305</ele>
        <time>2014-05-19T16:28:04Z</time>
      </trkpt>
      <trkpt lat="43.59475" lon="3.68222">
        <ele>254.1265</ele>
        <time>2014-05-19T16:28:09Z</time>
      </trkpt>
      <trkpt lat="43.59462" lon="3.68246">
        <ele>253.50018</ele>
        <time>2014-05-19T16:28:13Z</time>
      </trkpt>
      <trkpt lat="43.59456" lon="3.6827">
        <ele>253.01257</ele>
        <time>2014-05-19T16:28:16Z</time>
      </trkpt>
      <trkpt lat="43.59447" lon="3.68296">
        <ele>252.50374</ele>
        <time>2014-05-19T16:28:19Z</time>
      </trkpt>
      <trkpt lat="43.59437" lon="3.68318">
        <ele>251.66095</ele>
        <time>2014-05-19T16:28:22Z</time>
      </trkpt>
      <trkpt lat="43.59428" lon="3.68342">
        <ele>250.44759</ele>
        <time>2014-05-19T16:28:25Z</time>
      </trkpt>
      <trkpt lat="43.59418" lon="3.68367">
        <ele>249.70914</ele>
        <time>2014-05-19T16:28:28Z</time>
      </trkpt>
      <trkpt lat="43.59416" lon="3.68399">
        <ele>248.67574</ele>
        <time>2014-05-19T16:28:31Z</time>
      </trkpt>
      <trkpt lat="43.59425" lon="3.68425">
        <ele>246.83177</ele>
        <time>2014-05-19T16:28:35Z</time>
      </trkpt>
      <trkpt lat="43.59439" lon="3.68448">
        <ele>244.8181</ele>
        <time>2014-05-19T16:28:38Z</time>
      </trkpt>
      <trkpt lat="43.59452" lon="3.68472">
        <ele>243.32481</ele>
        <time>2014-05-19T16:28:41Z</time>
      </trkpt>
      <trkpt lat="43.59465" lon="3.68498">
        <ele>241.69954</ele>
        <time>2014-05-19T16:28:44Z</time>
      </trkpt>
      <trkpt lat="43.59472" lon="3.68523">
        <ele>238.58447</ele>
        <time>2014-05-19T16:29:17Z</time>
      </trkpt>
      <trkpt lat="43.59471" lon="3.68551">
        <ele>238.92114</ele>
        <time>2014-05-19T16:29:23Z</time>
      </trkpt>
      <trkpt lat="43.59448" lon="3.68557">
        <ele>240.70435</ele>
        <time>2014-05-19T16:29:27Z</time>
      </trkpt>
      <trkpt lat="43.5943" lon="3.68561">
        <ele>241.3581</ele>
        <time>2014-05-19T16:29:30Z</time>
      </trkpt>
      <trkpt lat="43.5941" lon="3.68557">
        <ele>240.90732</ele>
        <time>2014-05-19T16:29:33Z</time>
      </trkpt>
      <trkpt lat="43.59392" lon="3.6855">
        <ele>240.27286</ele>
        <time>2014-05-19T16:29:35Z</time>
      </trkpt>
      <trkpt lat="43.59373" lon="3.68554">
        <ele>239.92293</ele>
        <time>2014-05-19T16:29:38Z</time>
      </trkpt>
      <trkpt lat="43.5935" lon="3.68568">
        <ele>239.69873</ele>
        <time>2014-05-19T16:29:41Z</time>
      </trkpt>
      <trkpt lat="43.59327" lon="3.68588">
        <ele>236.70415</ele>
        <time>2014-05-19T16:29:44Z</time>
      </trkpt>
      <trkpt lat="43.59311" lon="3.68616">
        <ele>233.6955</ele>
        <time>2014-05-19T16:29:47Z</time>
      </trkpt>
      <trkpt lat="43.59297" lon="3.6863">
        <ele>223.42862</ele>
        <time>2014-05-19T16:31:11Z</time>
      </trkpt>
      <trkpt lat="43.59277" lon="3.68643">
        <ele>221.48125</ele>
        <time>2014-05-19T16:31:18Z</time>
      </trkpt>
      <trkpt lat="43.59258" lon="3.68659">
        <ele>222.12524</ele>
        <time>2014-05-19T16:31:23Z</time>
      </trkpt>
      <trkpt lat="43.59246" lon="3.68678">
        <ele>221.41222</ele>
        <time>2014-05-19T16:31:26Z</time>
      </trkpt>
      <trkpt lat="43.59234" lon="3.68702">
        <ele>221.248</ele>
        <time>2014-05-19T16:31:30Z</time>
      </trkpt>
      <trkpt lat="43.59229" lon="3.68731">
        <ele>219.70973</ele>
        <time>2014-05-19T16:31:35Z</time>
      </trkpt>
      <trkpt lat="43.59225" lon="3.68762">
        <ele>216.06206</ele>
        <time>2014-05-19T16:31:39Z</time>
      </trkpt>
      <trkpt lat="43.59227" lon="3.68791">
        <ele>214.07372</ele>
        <time>2014-05-19T16:31:44Z</time>
      </trkpt>
      <trkpt lat="43.59226" lon="3.68821">
        <ele>213.33736</ele>
        <time>2014-05-19T16:31:47Z</time>
      </trkpt>
      <trkpt lat="43.59234" lon="3.68844">
        <ele>212.98604</ele>
        <time>2014-05-19T16:31:51Z</time>
      </trkpt>
      <trkpt lat="43.59243" lon="3.68866">
        <ele>214.64116</ele>
        <time>2014-05-19T16:32:20Z</time>
      </trkpt>
      <trkpt lat="43.59247" lon="3.68892">
        <ele>220.60103</ele>
        <time>2014-05-19T16:32:31Z</time>
      </trkpt>
      <trkpt lat="43.5925" lon="3.68918">
        <ele>221.32764</ele>
        <time>2014-05-19T16:32:40Z</time>
      </trkpt>
      <trkpt lat="43.59255" lon="3.68945">
        <ele>223.39665</ele>
        <time>2014-05-19T16:32:48Z</time>
      </trkpt>
      <trkpt lat="43.5926" lon="3.68971">
        <ele>222.59172</ele>
        <time>2014-05-19T16:32:55Z</time>
      </trkpt>
      <trkpt lat="43.59267" lon="3.68994">
        <ele>225.05</ele>
        <time>2014-05-19T16:33:04Z</time>
      </trkpt>
      <trkpt lat="43.59278" lon="3.69014">
        <ele>224.7333</ele>
        <time>2014-05-19T16:33:17Z</time>
      </trkpt>
      <trkpt lat="43.59278" lon="3.69041">
        <ele>220.4701</ele>
        <time>2014-05-19T16:34:25Z</time>
      </trkpt>
      <trkpt lat="43.59289" lon="3.69063">
        <ele>222.3022</ele>
        <time>2014-05-19T16:34:31Z</time>
      </trkpt>
      <trkpt lat="43.59308" lon="3.69078">
        <ele>220.30365</ele>
        <time>2014-05-19T16:34:36Z</time>
      </trkpt>
      <trkpt lat="43.59324" lon="3.69094">
        <ele>220.09071</ele>
        <time>2014-05-19T16:34:41Z</time>
      </trkpt>
      <trkpt lat="43.59337" lon="3.69112">
        <ele>220.38495</ele>
        <time>2014-05-19T16:34:45Z</time>
      </trkpt>
      <trkpt lat="43.59353" lon="3.69128">
        <ele>217.88568</ele>
        <time>2014-05-19T16:34:50Z</time>
      </trkpt>
      <trkpt lat="43.59337" lon="3.69137">
        <ele>213.94456</ele>
        <time>2014-05-19T16:35:01Z</time>
      </trkpt>
      <trkpt lat="43.59316" lon="3.69132">
        <ele>213.21143</ele>
        <time>2014-05-19T16:35:07Z</time>
      </trkpt>
      <trkpt lat="43.59304" lon="3.69153">
        <ele>210.822</ele>
        <time>2014-05-19T16:35:10Z</time>
      </trkpt>
      <trkpt lat="43.59291" lon="3.69171">
        <ele>207.86595</ele>
        <time>2014-05-19T16:35:14Z</time>
      </trkpt>
      <trkpt lat="43.5927" lon="3.69184">
        <ele>205.0783</ele>
        <time>2014-05-19T16:35:18Z</time>
      </trkpt>
      <trkpt lat="43.59252" lon="3.69206">
        <ele>203.54352</ele>
        <time>2014-05-19T16:35:22Z</time>
      </trkpt>
      <trkpt lat="43.59231" lon="3.69226">
        <ele>202.0712</ele>
        <time>2014-05-19T16:35:26Z</time>
      </trkpt>
      <trkpt lat="43.59216" lon="3.69246">
        <ele>200.61128</ele>
        <time>2014-05-19T16:35:29Z</time>
      </trkpt>
      <trkpt lat="43.59203" lon="3.69272">
        <ele>198.3485</ele>
        <time>2014-05-19T16:35:33Z</time>
      </trkpt>
      <trkpt lat="43.59211" lon="3.69298">
        <ele>195.17511</ele>
        <time>2014-05-19T16:35:37Z</time>
      </trkpt>
      <trkpt lat="43.59218" lon="3.69329">
        <ele>192.53548</ele>
        <time>2014-05-19T16:35:41Z</time>
      </trkpt>
      <trkpt lat="43.59229" lon="3.69356">
        <ele>190.49286</ele>
        <time>2014-05-19T16:35:45Z</time>
      </trkpt>
      <trkpt lat="43.59244" lon="3.69381">
        <ele>188.5989</ele>
        <time>2014-05-19T16:35:49Z</time>
      </trkpt>
      <trkpt lat="43.59255" lon="3.69405">
        <ele>187.61646</ele>
        <time>2014-05-19T16:35:53Z</time>
      </trkpt>
      <trkpt lat="43.59257" lon="3.69431">
        <ele>186.51692</ele>
        <time>2014-05-19T16:35:57Z</time>
      </trkpt>
      <trkpt lat="43.59254" lon="3.6946">
        <ele>185.72684</ele>
        <time>2014-05-19T16:36:01Z</time>
      </trkpt>
      <trkpt lat="43.59257" lon="3.69492">
        <ele>184.55664</ele>
        <time>2014-05-19T16:36:04Z</time>
      </trkpt>
      <trkpt lat="43.59262" lon="3.69527">
        <ele>182.4942</ele>
        <time>2014-05-19T16:36:07Z</time>
      </trkpt>
      <trkpt lat="43.59266" lon="3.69552">
        <ele>180.75925</ele>
        <time>2014-05-19T16:36:09Z</time>
      </trkpt>
      <trkpt lat="43.59273" lon="3.69576">
        <ele>178.64583</ele>
        <time>2014-05-19T16:36:11Z</time>
      </trkpt>
      <trkpt lat="43.59281" lon="3.69598">
        <ele>177.01328</ele>
        <time>2014-05-19T16:36:13Z</time>
      </trkpt>
      <trkpt lat="43.59294" lon="3.69626">
        <ele>174.63373</ele>
        <time>2014-05-19T16:36:16Z</time>
      </trkpt>
      <trkpt lat="43.59311" lon="3.69651">
        <ele>172.84392</ele>
        <time>2014-05-19T16:36:19Z</time>
      </trkpt>
      <trkpt lat="43.59325" lon="3.69677">
        <ele>171.38728</ele>
        <time>2014-05-19T16:36:22Z</time>
      </trkpt>
      <trkpt lat="43.59334" lon="3.69703">
        <ele>170.40245</ele>
        <time>2014-05-19T16:36:25Z</time>
      </trkpt>
      <trkpt lat="43.59336" lon="3.69732">
        <ele>168.78384</ele>
        <time>2014-05-19T16:36:28Z</time>
      </trkpt>
      <trkpt lat="43.59335" lon="3.69762">
        <ele>166.81818</ele>
        <time>2014-05-19T16:36:31Z</time>
      </trkpt>
      <trkpt lat="43.59328" lon="3.6979">
        <ele>165.36548</ele>
        <time>2014-05-19T16:36:34Z</time>
      </trkpt>
      <trkpt lat="43.5932" lon="3.69813">
        <ele>164.16043</ele>
        <time>2014-05-19T16:36:37Z</time>
      </trkpt>
      <trkpt lat="43.59309" lon="3.6984">
        <ele>162.95361</ele>
        <time>2014-05-19T16:36:40Z</time>
      </trkpt>
      <trkpt lat="43.59293" lon="3.69864">
        <ele>161.04294</ele>
        <time>2014-05-19T16:36:43Z</time>
      </trkpt>
      <trkpt lat="43.59279" lon="3.69885">
        <ele>159.21655</ele>
        <time>2014-05-19T16:36:46Z</time>
      </trkpt>
      <trkpt lat="43.59257" lon="3.69899">
        <ele>156.83336</ele>
        <time>2014-05-19T16:36:50Z</time>
      </trkpt>
      <trkpt lat="43.59234" lon="3.69901">
        <ele>155.30353</ele>
        <time>2014-05-19T16:36:54Z</time>
      </trkpt>
      <trkpt lat="43.59216" lon="3.69898">
        <ele>153.67024</ele>
        <time>2014-05-19T16:36:57Z</time>
      </trkpt>
      <trkpt lat="43.59198" lon="3.69888">
        <ele>152.4515</ele>
        <time>2014-05-19T16:37:00Z</time>
      </trkpt>
      <trkpt lat="43.59177" lon="3.69876">
        <ele>151.09048</ele>
        <time>2014-05-19T16:37:03Z</time>
      </trkpt>
      <trkpt lat="43.5916" lon="3.69861">
        <ele>150.32254</ele>
        <time>2014-05-19T16:37:06Z</time>
      </trkpt>
      <trkpt lat="43.5914" lon="3.69848">
        <ele>149.4017</ele>
        <time>2014-05-19T16:37:09Z</time>
      </trkpt>
      <trkpt lat="43.59121" lon="3.69836">
        <ele>148.17102</ele>
        <time>2014-05-19T16:37:12Z</time>
      </trkpt>
      <trkpt lat="43.59103" lon="3.69825">
        <ele>146.49872</ele>
        <time>2014-05-19T16:37:15Z</time>
      </trkpt>
      <trkpt lat="43.59087" lon="3.69807">
        <ele>144.71196</ele>
        <time>2014-05-19T16:37:18Z</time>
      </trkpt>
      <trkpt lat="43.59074" lon="3.69786">
        <ele>142.72691</ele>
        <time>2014-05-19T16:37:21Z</time>
      </trkpt>
      <trkpt lat="43.59061" lon="3.69765">
        <ele>140.5598</ele>
        <time>2014-05-19T16:37:24Z</time>
      </trkpt>
      <trkpt lat="43.59042" lon="3.69746">
        <ele>138.93533</ele>
        <time>2014-05-19T16:37:28Z</time>
      </trkpt>
      <trkpt lat="43.5902" lon="3.69735">
        <ele>136.94478</ele>
        <time>2014-05-19T16:37:32Z</time>
      </trkpt>
      <trkpt lat="43.59003" lon="3.69727">
        <ele>136.6794</ele>
        <time>2014-05-19T16:37:36Z</time>
      </trkpt>
      <trkpt lat="43.58984" lon="3.69723">
        <ele>139.54121</ele>
        <time>2014-05-19T16:37:47Z</time>
      </trkpt>
      <trkpt lat="43.58966" lon="3.69725">
        <ele>142.78252</ele>
        <time>2014-05-19T16:37:56Z</time>
      </trkpt>
      <trkpt lat="43.58947" lon="3.69731">
        <ele>143.51898</ele>
        <time>2014-05-19T16:38:02Z</time>
      </trkpt>
      <trkpt lat="43.58929" lon="3.69745">
        <ele>144.22974</ele>
        <time>2014-05-19T16:38:11Z</time>
      </trkpt>
      <trkpt lat="43.58918" lon="3.69765">
        <ele>145.82465</ele>
        <time>2014-05-19T16:38:17Z</time>
      </trkpt>
      <trkpt lat="43.58909" lon="3.69788">
        <ele>149.63892</ele>
        <time>2014-05-19T16:38:52Z</time>
      </trkpt>
      <trkpt lat="43.58896" lon="3.69807">
        <ele>149.22733</ele>
        <time>2014-05-19T16:39:00Z</time>
      </trkpt>
      <trkpt lat="43.58888" lon="3.69831">
        <ele>150.59785</ele>
        <time>2014-05-19T16:39:08Z</time>
      </trkpt>
      <trkpt lat="43.58882" lon="3.69857">
        <ele>151.95932</ele>
        <time>2014-05-19T16:39:16Z</time>
      </trkpt>
      <trkpt lat="43.589" lon="3.69847">
        <ele>152.03197</ele>
        <time>2014-05-19T16:39:32Z</time>
      </trkpt>
      <trkpt lat="43.58915" lon="3.69834">
        <ele>152.20227</ele>
        <time>2014-05-19T16:39:39Z</time>
      </trkpt>
      <trkpt lat="43.58935" lon="3.69842">
        <ele>154.22134</ele>
        <time>2014-05-19T16:39:47Z</time>
      </trkpt>
      <trkpt lat="43.58948" lon="3.69861">
        <ele>155.45465</ele>
        <time>2014-05-19T16:39:54Z</time>
      </trkpt>
      <trkpt lat="43.58953" lon="3.69886">
        <ele>160.1464</ele>
        <time>2014-05-19T16:40:02Z</time>
      </trkpt>
      <trkpt lat="43.5897" lon="3.69896">
        <ele>164.2243</ele>
        <time>2014-05-19T16:40:11Z</time>
      </trkpt>
      <trkpt lat="43.58986" lon="3.69882">
        <ele>164.85214</ele>
        <time>2014-05-19T16:40:21Z</time>
      </trkpt>
      <trkpt lat="43.58998" lon="3.69901">
        <ele>165.8521</ele>
        <time>2014-05-19T16:40:45Z</time>
      </trkpt>
      <trkpt lat="43.58997" lon="3.69927">
        <ele>169.31033</ele>
        <time>2014-05-19T16:40:56Z</time>
      </trkpt>
      <trkpt lat="43.59001" lon="3.69951">
        <ele>174.38347</ele>
        <time>2014-05-19T16:41:07Z</time>
      </trkpt>
      <trkpt lat="43.59013" lon="3.69972">
        <ele>176.06828</ele>
        <time>2014-05-19T16:41:18Z</time>
      </trkpt>
      <trkpt lat="43.59028" lon="3.6999">
        <ele>176.26103</ele>
        <time>2014-05-19T16:41:30Z</time>
      </trkpt>
      <trkpt lat="43.5904" lon="3.70008">
        <ele>177.31087</ele>
        <time>2014-05-19T16:41:40Z</time>
      </trkpt>
      <trkpt lat="43.59054" lon="3.70025">
        <ele>178.8503</ele>
        <time>2014-05-19T16:41:48Z</time>
      </trkpt>
      <trkpt lat="43.59068" lon="3.70043">
        <ele>178.97112</ele>
        <time>2014-05-19T16:41:55Z</time>
      </trkpt>
      <trkpt lat="43.59083" lon="3.70061">
        <ele>179.20117</ele>
        <time>2014-05-19T16:42:02Z</time>
      </trkpt>
      <trkpt lat="43.59096" lon="3.70082">
        <ele>180.55548</ele>
        <time>2014-05-19T16:42:09Z</time>
      </trkpt>
      <trkpt lat="43.59108" lon="3.70103">
        <ele>183.4945</ele>
        <time>2014-05-19T16:42:19Z</time>
      </trkpt>
      <trkpt lat="43.59117" lon="3.70125">
        <ele>186.02863</ele>
        <time>2014-05-19T16:42:28Z</time>
      </trkpt>
      <trkpt lat="43.59125" lon="3.70148">
        <ele>186.52873</ele>
        <time>2014-05-19T16:42:56Z</time>
      </trkpt>
      <trkpt lat="43.59133" lon="3.7017">
        <ele>187.52869</ele>
        <time>2014-05-19T16:43:03Z</time>
      </trkpt>
      <trkpt lat="43.59146" lon="3.70192">
        <ele>188.86287</ele>
        <time>2014-05-19T16:43:09Z</time>
      </trkpt>
      <trkpt lat="43.59162" lon="3.70206">
        <ele>189.35135</ele>
        <time>2014-05-19T16:43:14Z</time>
      </trkpt>
      <trkpt lat="43.59177" lon="3.70219">
        <ele>189.04868</ele>
        <time>2014-05-19T16:43:18Z</time>
      </trkpt>
      <trkpt lat="43.59195" lon="3.70232">
        <ele>188.54742</ele>
        <time>2014-05-19T16:43:22Z</time>
      </trkpt>
      <trkpt lat="43.59213" lon="3.70242">
        <ele>188.5697</ele>
        <time>2014-05-19T16:43:26Z</time>
      </trkpt>
      <trkpt lat="43.59232" lon="3.70247">
        <ele>188.6326</ele>
        <time>2014-05-19T16:43:30Z</time>
      </trkpt>
      <trkpt lat="43.59251" lon="3.70249">
        <ele>188.8314</ele>
        <time>2014-05-19T16:43:34Z</time>
      </trkpt>
      <trkpt lat="43.59268" lon="3.70258">
        <ele>189.36267</ele>
        <time>2014-05-19T16:43:38Z</time>
      </trkpt>
      <trkpt lat="43.59282" lon="3.70277">
        <ele>189.85579</ele>
        <time>2014-05-19T16:43:43Z</time>
      </trkpt>
      <trkpt lat="43.59301" lon="3.70292">
        <ele>189.26704</ele>
        <time>2014-05-19T16:43:48Z</time>
      </trkpt>
      <trkpt lat="43.59321" lon="3.70305">
        <ele>189.24052</ele>
        <time>2014-05-19T16:43:53Z</time>
      </trkpt>
      <trkpt lat="43.59338" lon="3.70315">
        <ele>189.44446</ele>
        <time>2014-05-19T16:43:57Z</time>
      </trkpt>
      <trkpt lat="43.59356" lon="3.70324">
        <ele>189.64453</ele>
        <time>2014-05-19T16:44:01Z</time>
      </trkpt>
      <trkpt lat="43.59375" lon="3.70331">
        <ele>189.57307</ele>
        <time>2014-05-19T16:44:05Z</time>
      </trkpt>
      <trkpt lat="43.59394" lon="3.70338">
        <ele>189.39108</ele>
        <time>2014-05-19T16:44:09Z</time>
      </trkpt>
      <trkpt lat="43.59415" lon="3.70347">
        <ele>189.2464</ele>
        <time>2014-05-19T16:44:13Z</time>
      </trkpt>
      <trkpt lat="43.59434" lon="3.70355">
        <ele>188.72289</ele>
        <time>2014-05-19T16:44:17Z</time>
      </trkpt>
      <trkpt lat="43.59456" lon="3.70367">
        <ele>188.6592</ele>
        <time>2014-05-19T16:44:21Z</time>
      </trkpt>
      <trkpt lat="43.59465" lon="3.70388">
        <ele>190.05896</ele>
        <time>2014-05-19T16:44:25Z</time>
      </trkpt>
      <trkpt lat="43.59461" lon="3.70415">
        <ele>191.81644</ele>
        <time>2014-05-19T16:44:30Z</time>
      </trkpt>
      <trkpt lat="43.59459" lon="3.70443">
        <ele>193.42758</ele>
        <time>2014-05-19T16:44:36Z</time>
      </trkpt>
      <trkpt lat="43.59456" lon="3.70472">
        <ele>193.9191</ele>
        <time>2014-05-19T16:44:42Z</time>
      </trkpt>
      <trkpt lat="43.59449" lon="3.70503">
        <ele>193.63211</ele>
        <time>2014-05-19T16:44:48Z</time>
      </trkpt>
      <trkpt lat="43.59444" lon="3.70528">
        <ele>192.925</ele>
        <time>2014-05-19T16:44:52Z</time>
      </trkpt>
      <trkpt lat="43.5944" lon="3.70555">
        <ele>192.75536</ele>
        <time>2014-05-19T16:44:57Z</time>
      </trkpt>
      <trkpt lat="43.59424" lon="3.70571">
        <ele>192.37231</ele>
        <time>2014-05-19T16:45:02Z</time>
      </trkpt>
      <trkpt lat="43.59411" lon="3.70595">
        <ele>190.87976</ele>
        <time>2014-05-19T16:45:07Z</time>
      </trkpt>
      <trkpt lat="43.59407" lon="3.70625">
        <ele>190.04126</ele>
        <time>2014-05-19T16:45:11Z</time>
      </trkpt>
      <trkpt lat="43.59399" lon="3.70651">
        <ele>189.49236</ele>
        <time>2014-05-19T16:45:15Z</time>
      </trkpt>
      <trkpt lat="43.59387" lon="3.70672">
        <ele>188.71048</ele>
        <time>2014-05-19T16:45:19Z</time>
      </trkpt>
      <trkpt lat="43.59368" lon="3.7066">
        <ele>185.25484</ele>
        <time>2014-05-19T16:46:22Z</time>
      </trkpt>
      <trkpt lat="43.59351" lon="3.70651">
        <ele>184.96771</ele>
        <time>2014-05-19T16:46:28Z</time>
      </trkpt>
      <trkpt lat="43.59333" lon="3.70637">
        <ele>186.78902</ele>
        <time>2014-05-19T16:46:33Z</time>
      </trkpt>
      <trkpt lat="43.59317" lon="3.70624">
        <ele>187.94614</ele>
        <time>2014-05-19T16:46:37Z</time>
      </trkpt>
      <trkpt lat="43.59301" lon="3.70607">
        <ele>188.41971</ele>
        <time>2014-05-19T16:46:40Z</time>
      </trkpt>
      <trkpt lat="43.59284" lon="3.70593">
        <ele>188.08466</ele>
        <time>2014-05-19T16:46:45Z</time>
      </trkpt>
      <trkpt lat="43.59268" lon="3.70583">
        <ele>188.87405</ele>
        <time>2014-05-19T16:46:49Z</time>
      </trkpt>
      <trkpt lat="43.59252" lon="3.7057">
        <ele>189.7125</ele>
        <time>2014-05-19T16:46:52Z</time>
      </trkpt>
      <trkpt lat="43.59234" lon="3.70559">
        <ele>191.97621</ele>
        <time>2014-05-19T16:46:56Z</time>
      </trkpt>
      <trkpt lat="43.59213" lon="3.70544">
        <ele>192.00224</ele>
        <time>2014-05-19T16:47:00Z</time>
      </trkpt>
      <trkpt lat="43.59195" lon="3.70532">
        <ele>191.63118</ele>
        <time>2014-05-19T16:47:04Z</time>
      </trkpt>
      <trkpt lat="43.59172" lon="3.70525">
        <ele>190.64384</ele>
        <time>2014-05-19T16:47:08Z</time>
      </trkpt>
      <trkpt lat="43.59154" lon="3.70525">
        <ele>189.46693</ele>
        <time>2014-05-19T16:47:11Z</time>
      </trkpt>
      <trkpt lat="43.59132" lon="3.70539">
        <ele>188.71024</ele>
        <time>2014-05-19T16:47:15Z</time>
      </trkpt>
      <trkpt lat="43.59117" lon="3.70551">
        <ele>188.02434</ele>
        <time>2014-05-19T16:47:19Z</time>
      </trkpt>
      <trkpt lat="43.59097" lon="3.70569">
        <ele>186.37527</ele>
        <time>2014-05-19T16:47:23Z</time>
      </trkpt>
      <trkpt lat="43.59086" lon="3.70594">
        <ele>186.44843</ele>
        <time>2014-05-19T16:47:27Z</time>
      </trkpt>
      <trkpt lat="43.59079" lon="3.70618">
        <ele>186.60204</ele>
        <time>2014-05-19T16:47:31Z</time>
      </trkpt>
      <trkpt lat="43.5908" lon="3.70645">
        <ele>186.6155</ele>
        <time>2014-05-19T16:47:35Z</time>
      </trkpt>
      <trkpt lat="43.59087" lon="3.70674">
        <ele>185.37091</ele>
        <time>2014-05-19T16:47:39Z</time>
      </trkpt>
      <trkpt lat="43.59091" lon="3.70706">
        <ele>183.6154</ele>
        <time>2014-05-19T16:47:43Z</time>
      </trkpt>
      <trkpt lat="43.59093" lon="3.70733">
        <ele>182.41588</ele>
        <time>2014-05-19T16:47:46Z</time>
      </trkpt>
      <trkpt lat="43.59098" lon="3.70759">
        <ele>180.76451</ele>
        <time>2014-05-19T16:47:49Z</time>
      </trkpt>
      <trkpt lat="43.59107" lon="3.70782">
        <ele>178.51784</ele>
        <time>2014-05-19T16:47:52Z</time>
      </trkpt>
      <trkpt lat="43.59118" lon="3.70805">
        <ele>176.31221</ele>
        <time>2014-05-19T16:47:55Z</time>
      </trkpt>
      <trkpt lat="43.59131" lon="3.70832">
        <ele>174.00346</ele>
        <time>2014-05-19T16:47:59Z</time>
      </trkpt>
      <trkpt lat="43.59149" lon="3.70845">
        <ele>171.65187</ele>
        <time>2014-05-19T16:48:03Z</time>
      </trkpt>
      <trkpt lat="43.59171" lon="3.70845">
        <ele>169.3</ele>
        <time>2014-05-19T16:48:08Z</time>
      </trkpt>
      <trkpt lat="43.59189" lon="3.70843">
        <ele>167.93672</ele>
        <time>2014-05-19T16:48:12Z</time>
      </trkpt>
      <trkpt lat="43.59211" lon="3.70835">
        <ele>165.30373</ele>
        <time>2014-05-19T16:48:17Z</time>
      </trkpt>
      <trkpt lat="43.59229" lon="3.70848">
        <ele>162.5268</ele>
        <time>2014-05-19T16:48:23Z</time>
      </trkpt>
      <trkpt lat="43.59218" lon="3.70868">
        <ele>162.09415</ele>
        <time>2014-05-19T16:48:28Z</time>
      </trkpt>
      <trkpt lat="43.59203" lon="3.70883">
        <ele>163.04445</ele>
        <time>2014-05-19T16:48:35Z</time>
      </trkpt>
      <trkpt lat="43.59189" lon="3.70902">
        <ele>165.70079</ele>
        <time>2014-05-19T16:48:43Z</time>
      </trkpt>
      <trkpt lat="43.59175" lon="3.70921">
        <ele>167.42673</ele>
        <time>2014-05-19T16:48:49Z</time>
      </trkpt>
      <trkpt lat="43.5916" lon="3.70938">
        <ele>167.86479</ele>
        <time>2014-05-19T16:48:56Z</time>
      </trkpt>
      <trkpt lat="43.59143" lon="3.70948">
        <ele>170.06287</ele>
        <time>2014-05-19T16:49:05Z</time>
      </trkpt>
      <trkpt lat="43.59126" lon="3.70957">
        <ele>170.20816</ele>
        <time>2014-05-19T16:49:14Z</time>
      </trkpt>
      <trkpt lat="43.59111" lon="3.70972">
        <ele>171.62042</ele>
        <time>2014-05-19T16:49:21Z</time>
      </trkpt>
      <trkpt lat="43.591" lon="3.70995">
        <ele>173.20638</ele>
        <time>2014-05-19T16:49:29Z</time>
      </trkpt>
      <trkpt lat="43.59084" lon="3.71006">
        <ele>174.35507</ele>
        <time>2014-05-19T16:49:37Z</time>
      </trkpt>
      <trkpt lat="43.59067" lon="3.70996">
        <ele>174.81297</ele>
        <time>2014-05-19T16:49:45Z</time>
      </trkpt>
      <trkpt lat="43.59048" lon="3.70991">
        <ele>174.97046</ele>
        <time>2014-05-19T16:49:53Z</time>
      </trkpt>
      <trkpt lat="43.59028" lon="3.7099">
        <ele>175.75392</ele>
        <time>2014-05-19T16:50:01Z</time>
      </trkpt>
      <trkpt lat="43.59008" lon="3.7099">
        <ele>175.82817</ele>
        <time>2014-05-19T16:50:09Z</time>
      </trkpt>
      <trkpt lat="43.58993" lon="3.70977">
        <ele>177.97066</ele>
        <time>2014-05-19T16:50:16Z</time>
      </trkpt>
      <trkpt lat="43.58986" lon="3.70951">
        <ele>179.67822</ele>
        <time>2014-05-19T16:50:24Z</time>
      </trkpt>
      <trkpt lat="43.58979" lon="3.70925">
        <ele>180.7418</ele>
        <time>2014-05-19T16:50:32Z</time>
      </trkpt>
      <trkpt lat="43.5897" lon="3.70902">
        <ele>181.39647</ele>
        <time>2014-05-19T16:50:39Z</time>
      </trkpt>
      <trkpt lat="43.58962" lon="3.70877">
        <ele>182.09358</ele>
        <time>2014-05-19T16:50:47Z</time>
      </trkpt>
      <trkpt lat="43.58953" lon="3.70855">
        <ele>181.82227</ele>
        <time>2014-05-19T16:50:54Z</time>
      </trkpt>
      <trkpt lat="43.58944" lon="3.70831">
        <ele>182.67514</ele>
        <time>2014-05-19T16:51:02Z</time>
      </trkpt>
      <trkpt lat="43.58938" lon="3.70806">
        <ele>184.59935</ele>
        <time>2014-05-19T16:51:09Z</time>
      </trkpt>
      <trkpt lat="43.58937" lon="3.7078">
        <ele>185.47073</ele>
        <time>2014-05-19T16:51:15Z</time>
      </trkpt>
      <trkpt lat="43.58932" lon="3.70756">
        <ele>186.26598</ele>
        <time>2014-05-19T16:51:22Z</time>
      </trkpt>
      <trkpt lat="43.58921" lon="3.70733">
        <ele>186.7555</ele>
        <time>2014-05-19T16:51:27Z</time>
      </trkpt>
      <trkpt lat="43.58904" lon="3.70713">
        <ele>186.22714</ele>
        <time>2014-05-19T16:51:32Z</time>
      </trkpt>
      <trkpt lat="43.58889" lon="3.70692">
        <ele>186.08359</ele>
        <time>2014-05-19T16:51:37Z</time>
      </trkpt>
      <trkpt lat="43.58873" lon="3.70674">
        <ele>185.84052</ele>
        <time>2014-05-19T16:51:41Z</time>
      </trkpt>
      <trkpt lat="43.58855" lon="3.70662">
        <ele>185.68938</ele>
        <time>2014-05-19T16:51:45Z</time>
      </trkpt>
      <trkpt lat="43.58833" lon="3.70653">
        <ele>185.48921</ele>
        <time>2014-05-19T16:51:49Z</time>
      </trkpt>
      <trkpt lat="43.58813" lon="3.70639">
        <ele>185.26337</ele>
        <time>2014-05-19T16:51:54Z</time>
      </trkpt>
      <trkpt lat="43.58796" lon="3.70622">
        <ele>186.21005</ele>
        <time>2014-05-19T16:51:59Z</time>
      </trkpt>
      <trkpt lat="43.58779" lon="3.70605">
        <ele>187.26909</ele>
        <time>2014-05-19T16:52:04Z</time>
      </trkpt>
      <trkpt lat="43.58764" lon="3.70587">
        <ele>187.76326</ele>
        <time>2014-05-19T16:52:08Z</time>
      </trkpt>
      <trkpt lat="43.58749" lon="3.7057">
        <ele>186.77979</ele>
        <time>2014-05-19T16:52:12Z</time>
      </trkpt>
      <trkpt lat="43.5873" lon="3.70557">
        <ele>185.7354</ele>
        <time>2014-05-19T16:52:16Z</time>
      </trkpt>
      <trkpt lat="43.58708" lon="3.70543">
        <ele>185.53894</ele>
        <time>2014-05-19T16:52:20Z</time>
      </trkpt>
      <trkpt lat="43.58689" lon="3.70529">
        <ele>185.73692</ele>
        <time>2014-05-19T16:52:24Z</time>
      </trkpt>
      <trkpt lat="43.5867" lon="3.70514">
        <ele>185.94997</ele>
        <time>2014-05-19T16:52:28Z</time>
      </trkpt>
      <trkpt lat="43.58655" lon="3.70498">
        <ele>185.6377</ele>
        <time>2014-05-19T16:52:34Z</time>
      </trkpt>
      <trkpt lat="43.58638" lon="3.70492">
        <ele>184.67163</ele>
        <time>2014-05-19T16:52:41Z</time>
      </trkpt>
      <trkpt lat="43.58629" lon="3.70517">
        <ele>185.79979</ele>
        <time>2014-05-19T16:52:47Z</time>
      </trkpt>
      <trkpt lat="43.58626" lon="3.70544">
        <ele>187.08388</ele>
        <time>2014-05-19T16:52:53Z</time>
      </trkpt>
      <trkpt lat="43.5862" lon="3.7057">
        <ele>188.71568</ele>
        <time>2014-05-19T16:52:59Z</time>
      </trkpt>
      <trkpt lat="43.58613" lon="3.70597">
        <ele>189.7403</ele>
        <time>2014-05-19T16:53:05Z</time>
      </trkpt>
      <trkpt lat="43.58607" lon="3.70623">
        <ele>189.96494</ele>
        <time>2014-05-19T16:53:10Z</time>
      </trkpt>
      <trkpt lat="43.58605" lon="3.70649">
        <ele>191.17664</ele>
        <time>2014-05-19T16:53:15Z</time>
      </trkpt>
      <trkpt lat="43.58608" lon="3.70676">
        <ele>191.84778</ele>
        <time>2014-05-19T16:53:20Z</time>
      </trkpt>
      <trkpt lat="43.58609" lon="3.70702">
        <ele>191.89558</ele>
        <time>2014-05-19T16:53:24Z</time>
      </trkpt>
      <trkpt lat="43.58599" lon="3.70728">
        <ele>192.99883</ele>
        <time>2014-05-19T16:53:33Z</time>
      </trkpt>
      <trkpt lat="43.58582" lon="3.70737">
        <ele>191.97879</ele>
        <time>2014-05-19T16:53:39Z</time>
      </trkpt>
      <trkpt lat="43.58561" lon="3.70731">
        <ele>189.2356</ele>
        <time>2014-05-19T16:53:46Z</time>
      </trkpt>
      <trkpt lat="43.5854" lon="3.70736">
        <ele>186.25093</ele>
        <time>2014-05-19T16:53:51Z</time>
      </trkpt>
      <trkpt lat="43.58523" lon="3.70749">
        <ele>184.77159</ele>
        <time>2014-05-19T16:53:55Z</time>
      </trkpt>
      <trkpt lat="43.5851" lon="3.7077">
        <ele>183.99776</ele>
        <time>2014-05-19T16:54:00Z</time>
      </trkpt>
      <trkpt lat="43.58491" lon="3.70767">
        <ele>184.06152</ele>
        <time>2014-05-19T16:54:06Z</time>
      </trkpt>
      <trkpt lat="43.58484" lon="3.70743">
        <ele>182.14487</ele>
        <time>2014-05-19T16:54:14Z</time>
      </trkpt>
      <trkpt lat="43.5847" lon="3.70723">
        <ele>182.09953</ele>
        <time>2014-05-19T16:54:21Z</time>
      </trkpt>
      <trkpt lat="43.58463" lon="3.70698">
        <ele>182.4172</ele>
        <time>2014-05-19T16:54:27Z</time>
      </trkpt>
      <trkpt lat="43.58452" lon="3.70675">
        <ele>181.4689</ele>
        <time>2014-05-19T16:54:33Z</time>
      </trkpt>
      <trkpt lat="43.58434" lon="3.70664">
        <ele>181.32205</ele>
        <time>2014-05-19T16:54:40Z</time>
      </trkpt>
      <trkpt lat="43.58413" lon="3.70663">
        <ele>180.79327</ele>
        <time>2014-05-19T16:54:46Z</time>
      </trkpt>
      <trkpt lat="43.58395" lon="3.70663">
        <ele>180.12299</ele>
        <time>2014-05-19T16:55:22Z</time>
      </trkpt>
      <trkpt lat="43.58375" lon="3.70662">
        <ele>178.70131</ele>
        <time>2014-05-19T16:55:31Z</time>
      </trkpt>
      <trkpt lat="43.58357" lon="3.70661">
        <ele>177.30255</ele>
        <time>2014-05-19T16:55:37Z</time>
      </trkpt>
      <trkpt lat="43.58336" lon="3.70657">
        <ele>176.56293</ele>
        <time>2014-05-19T16:55:43Z</time>
      </trkpt>
      <trkpt lat="43.58315" lon="3.70652">
        <ele>175.46303</ele>
        <time>2014-05-19T16:55:49Z</time>
      </trkpt>
      <trkpt lat="43.58293" lon="3.70648">
        <ele>174.0883</ele>
        <time>2014-05-19T16:55:54Z</time>
      </trkpt>
      <trkpt lat="43.58272" lon="3.70644">
        <ele>172.75273</ele>
        <time>2014-05-19T16:56:00Z</time>
      </trkpt>
      <trkpt lat="43.58252" lon="3.70643">
        <ele>170.7927</ele>
        <time>2014-05-19T16:56:05Z</time>
      </trkpt>
      <trkpt lat="43.58234" lon="3.7064">
        <ele>168.96527</ele>
        <time>2014-05-19T16:56:09Z</time>
      </trkpt>
      <trkpt lat="43.58212" lon="3.70646">
        <ele>166.22534</ele>
        <time>2014-05-19T16:56:14Z</time>
      </trkpt>
      <trkpt lat="43.58191" lon="3.70653">
        <ele>163.892</ele>
        <time>2014-05-19T16:56:18Z</time>
      </trkpt>
      <trkpt lat="43.58174" lon="3.70663">
        <ele>161.37715</ele>
        <time>2014-05-19T16:56:22Z</time>
      </trkpt>
      <trkpt lat="43.58157" lon="3.70677">
        <ele>157.82533</ele>
        <time>2014-05-19T16:56:27Z</time>
      </trkpt>
      <trkpt lat="43.58136" lon="3.70689">
        <ele>154.62437</ele>
        <time>2014-05-19T16:56:32Z</time>
      </trkpt>
      <trkpt lat="43.58118" lon="3.70705">
        <ele>151.259</ele>
        <time>2014-05-19T16:56:37Z</time>
      </trkpt>
      <trkpt lat="43.58107" lon="3.7073">
        <ele>147.38737</ele>
        <time>2014-05-19T16:56:43Z</time>
      </trkpt>
      <trkpt lat="43.58105" lon="3.70757">
        <ele>143.9805</ele>
        <time>2014-05-19T16:56:48Z</time>
      </trkpt>
      <trkpt lat="43.581" lon="3.70784">
        <ele>141.52649</ele>
        <time>2014-05-19T16:56:54Z</time>
      </trkpt>
      <trkpt lat="43.58092" lon="3.70809">
        <ele>139.72115</ele>
        <time>2014-05-19T16:57:00Z</time>
      </trkpt>
      <trkpt lat="43.58089" lon="3.70835">
        <ele>136.83028</ele>
        <time>2014-05-19T16:57:06Z</time>
      </trkpt>
      <trkpt lat="43.58088" lon="3.70862">
        <ele>134.40453</ele>
        <time>2014-05-19T16:57:13Z</time>
      </trkpt>
      <trkpt lat="43.58091" lon="3.70887">
        <ele>132.29411</ele>
        <time>2014-05-19T16:57:22Z</time>
      </trkpt>
      <trkpt lat="43.58089" lon="3.70917">
        <ele>130.6246</ele>
        <time>2014-05-19T16:57:28Z</time>
      </trkpt>
      <trkpt lat="43.58093" lon="3.70943">
        <ele>129.02615</ele>
        <time>2014-05-19T16:57:33Z</time>
      </trkpt>
      <trkpt lat="43.581" lon="3.70967">
        <ele>128.50977</ele>
        <time>2014-05-19T16:57:41Z</time>
      </trkpt>
      <trkpt lat="43.58103" lon="3.70993">
        <ele>130.78098</ele>
        <time>2014-05-19T16:57:52Z</time>
      </trkpt>
      <trkpt lat="43.58105" lon="3.7102">
        <ele>120.30825</ele>
        <time>2014-05-19T17:00:35Z</time>
      </trkpt>
      <trkpt lat="43.58106" lon="3.71045">
        <ele>122.71472</ele>
        <time>2014-05-19T17:00:45Z</time>
      </trkpt>
      <trkpt lat="43.58107" lon="3.7107">
        <ele>125.59449</ele>
        <time>2014-05-19T17:00:55Z</time>
      </trkpt>
      <trkpt lat="43.58104" lon="3.71095">
        <ele>127.011566</ele>
        <time>2014-05-19T17:01:06Z</time>
      </trkpt>
      <trkpt lat="43.58103" lon="3.71123">
        <ele>134.43279</ele>
        <time>2014-05-19T17:01:17Z</time>
      </trkpt>
      <trkpt lat="43.58111" lon="3.71146">
        <ele>133.18726</ele>
        <time>2014-05-19T17:01:28Z</time>
      </trkpt>
      <trkpt lat="43.58118" lon="3.71169">
        <ele>131.79976</ele>
        <time>2014-05-19T17:01:40Z</time>
      </trkpt>
      <trkpt lat="43.58115" lon="3.71194">
        <ele>135.51396</ele>
        <time>2014-05-19T17:01:53Z</time>
      </trkpt>
      <trkpt lat="43.58112" lon="3.7122">
        <ele>137.77213</ele>
        <time>2014-05-19T17:02:09Z</time>
      </trkpt>
      <trkpt lat="43.58113" lon="3.71245">
        <ele>138.15807</ele>
        <time>2014-05-19T17:02:34Z</time>
      </trkpt>
      <trkpt lat="43.58102" lon="3.71265">
        <ele>142.22244</ele>
        <time>2014-05-19T17:03:17Z</time>
      </trkpt>
      <trkpt lat="43.58108" lon="3.71236">
        <ele>136.01122</ele>
        <time>2014-05-19T17:03:39Z</time>
      </trkpt>
      <trkpt lat="43.58089" lon="3.71225">
        <ele>132.29588</ele>
        <time>2014-05-19T17:04:07Z</time>
      </trkpt>
      <trkpt lat="43.58086" lon="3.712">
        <ele>133.34709</ele>
        <time>2014-05-19T17:04:35Z</time>
      </trkpt>
      <trkpt lat="43.58083" lon="3.71175">
        <ele>135.6167</ele>
        <time>2014-05-19T17:04:48Z</time>
      </trkpt>
      <trkpt lat="43.5808" lon="3.71151">
        <ele>136.27483</ele>
        <time>2014-05-19T17:05:01Z</time>
      </trkpt>
      <trkpt lat="43.58071" lon="3.71128">
        <ele>137.36089</ele>
        <time>2014-05-19T17:05:14Z</time>
      </trkpt>
      <trkpt lat="43.5806" lon="3.71107">
        <ele>139.53807</ele>
        <time>2014-05-19T17:05:26Z</time>
      </trkpt>
      <trkpt lat="43.58055" lon="3.71083">
        <ele>142.11821</ele>
        <time>2014-05-19T17:05:38Z</time>
      </trkpt>
      <trkpt lat="43.58048" lon="3.71058">
        <ele>144.0819</ele>
        <time>2014-05-19T17:05:50Z</time>
      </trkpt>
      <trkpt lat="43.58042" lon="3.71032">
        <ele>145.68903</ele>
        <time>2014-05-19T17:06:02Z</time>
      </trkpt>
      <trkpt lat="43.58035" lon="3.71008">
        <ele>145.56154</ele>
        <time>2014-05-19T17:06:16Z</time>
      </trkpt>
      <trkpt lat="43.58029" lon="3.70982">
        <ele>148.01231</ele>
        <time>2014-05-19T17:07:15Z</time>
      </trkpt>
      <trkpt lat="43.58021" lon="3.70957">
        <ele>148.5967</ele>
        <time>2014-05-19T17:07:22Z</time>
      </trkpt>
      <trkpt lat="43.58018" lon="3.70932">
        <ele>149.9333</ele>
        <time>2014-05-19T17:07:29Z</time>
      </trkpt>
      <trkpt lat="43.58011" lon="3.70908">
        <ele>151.20772</ele>
        <time>2014-05-19T17:07:37Z</time>
      </trkpt>
      <trkpt lat="43.58005" lon="3.70885">
        <ele>151.93729</ele>
        <time>2014-05-19T17:07:45Z</time>
      </trkpt>
      <trkpt lat="43.57994" lon="3.70861">
        <ele>152.40579</ele>
        <time>2014-05-19T17:07:53Z</time>
      </trkpt>
      <trkpt lat="43.57985" lon="3.70837">
        <ele>153.93498</ele>
        <time>2014-05-19T17:08:02Z</time>
      </trkpt>
      <trkpt lat="43.57975" lon="3.70817">
        <ele>154.24838</ele>
        <time>2014-05-19T17:08:13Z</time>
      </trkpt>
      <trkpt lat="43.57967" lon="3.70793">
        <ele>155.33897</ele>
        <time>2014-05-19T17:08:25Z</time>
      </trkpt>
      <trkpt lat="43.57958" lon="3.70771">
        <ele>156.92973</ele>
        <time>2014-05-19T17:08:38Z</time>
      </trkpt>
      <trkpt lat="43.57948" lon="3.70749">
        <ele>158.22026</ele>
        <time>2014-05-19T17:08:51Z</time>
      </trkpt>
      <trkpt lat="43.57942" lon="3.70725">
        <ele>160.49225</ele>
        <time>2014-05-19T17:09:04Z</time>
      </trkpt>
      <trkpt lat="43.57937" lon="3.707">
        <ele>162.65085</ele>
        <time>2014-05-19T17:09:16Z</time>
      </trkpt>
      <trkpt lat="43.57932" lon="3.70674">
        <ele>163.61093</ele>
        <time>2014-05-19T17:09:29Z</time>
      </trkpt>
      <trkpt lat="43.57929" lon="3.70649">
        <ele>165.59671</ele>
        <time>2014-05-19T17:09:40Z</time>
      </trkpt>
      <trkpt lat="43.57927" lon="3.70622">
        <ele>166.90138</ele>
        <time>2014-05-19T17:09:49Z</time>
      </trkpt>
      <trkpt lat="43.57923" lon="3.70596">
        <ele>168.10857</ele>
        <time>2014-05-19T17:09:58Z</time>
      </trkpt>
      <trkpt lat="43.57918" lon="3.70572">
        <ele>167.7262</ele>
        <time>2014-05-19T17:10:06Z</time>
      </trkpt>
      <trkpt lat="43.57916" lon="3.70546">
        <ele>167.8267</ele>
        <time>2014-05-19T17:10:16Z</time>
      </trkpt>
      <trkpt lat="43.57915" lon="3.70519">
        <ele>166.79732</ele>
        <time>2014-05-19T17:10:27Z</time>
      </trkpt>
      <trkpt lat="43.57919" lon="3.70492">
        <ele>168.07796</ele>
        <time>2014-05-19T17:10:35Z</time>
      </trkpt>
      <trkpt lat="43.57924" lon="3.70464">
        <ele>167.67871</ele>
        <time>2014-05-19T17:10:41Z</time>
      </trkpt>
      <trkpt lat="43.57936" lon="3.70445">
        <ele>168.47852</ele>
        <time>2014-05-19T17:10:48Z</time>
      </trkpt>
      <trkpt lat="43.5795" lon="3.70425">
        <ele>170.27779</ele>
        <time>2014-05-19T17:10:56Z</time>
      </trkpt>
      <trkpt lat="43.57956" lon="3.70401">
        <ele>173.27328</ele>
        <time>2014-05-19T17:11:06Z</time>
      </trkpt>
      <trkpt lat="43.57961" lon="3.70376">
        <ele>177.31215</ele>
        <time>2014-05-19T17:11:18Z</time>
      </trkpt>
      <trkpt lat="43.5797" lon="3.70353">
        <ele>180.99945</ele>
        <time>2014-05-19T17:11:33Z</time>
      </trkpt>
      <trkpt lat="43.57979" lon="3.7033">
        <ele>183.28163</ele>
        <time>2014-05-19T17:11:48Z</time>
      </trkpt>
      <trkpt lat="43.57987" lon="3.70306">
        <ele>183.8268</ele>
        <time>2014-05-19T17:12:10Z</time>
      </trkpt>
      <trkpt lat="43.57992" lon="3.70282">
        <ele>185.67773</ele>
        <time>2014-05-19T17:12:22Z</time>
      </trkpt>
      <trkpt lat="43.57997" lon="3.70257">
        <ele>186.62212</ele>
        <time>2014-05-19T17:12:35Z</time>
      </trkpt>
      <trkpt lat="43.57992" lon="3.70231">
        <ele>188.68059</ele>
        <time>2014-05-19T17:12:47Z</time>
      </trkpt>
      <trkpt lat="43.57986" lon="3.70205">
        <ele>190.5387</ele>
        <time>2014-05-19T17:12:56Z</time>
      </trkpt>
      <trkpt lat="43.5798" lon="3.70178">
        <ele>190.63298</ele>
        <time>2014-05-19T17:13:03Z</time>
      </trkpt>
      <trkpt lat="43.57972" lon="3.70154">
        <ele>191.1632</ele>
        <time>2014-05-19T17:13:08Z</time>
      </trkpt>
      <trkpt lat="43.57963" lon="3.7013">
        <ele>191.64539</ele>
        <time>2014-05-19T17:13:14Z</time>
      </trkpt>
      <trkpt lat="43.57955" lon="3.70105">
        <ele>191.14816</ele>
        <time>2014-05-19T17:13:19Z</time>
      </trkpt>
      <trkpt lat="43.57946" lon="3.70083">
        <ele>190.61601</ele>
        <time>2014-05-19T17:13:24Z</time>
      </trkpt>
      <trkpt lat="43.57934" lon="3.70065">
        <ele>190.1331</ele>
        <time>2014-05-19T17:13:30Z</time>
      </trkpt>
      <trkpt lat="43.57914" lon="3.70058">
        <ele>189.41327</ele>
        <time>2014-05-19T17:13:36Z</time>
      </trkpt>
      <trkpt lat="43.57895" lon="3.70056">
        <ele>189.79094</ele>
        <time>2014-05-19T17:13:41Z</time>
      </trkpt>
      <trkpt lat="43.57874" lon="3.70054">
        <ele>189.62393</ele>
        <time>2014-05-19T17:13:46Z</time>
      </trkpt>
      <trkpt lat="43.57855" lon="3.70059">
        <ele>189.59312</ele>
        <time>2014-05-19T17:13:50Z</time>
      </trkpt>
      <trkpt lat="43.57836" lon="3.70058">
        <ele>189.15915</ele>
        <time>2014-05-19T17:13:54Z</time>
      </trkpt>
      <trkpt lat="43.57815" lon="3.70066">
        <ele>189.0316</ele>
        <time>2014-05-19T17:13:58Z</time>
      </trkpt>
      <trkpt lat="43.57796" lon="3.7007">
        <ele>188.98969</ele>
        <time>2014-05-19T17:14:02Z</time>
      </trkpt>
      <trkpt lat="43.57774" lon="3.70074">
        <ele>188.7858</ele>
        <time>2014-05-19T17:14:06Z</time>
      </trkpt>
      <trkpt lat="43.57754" lon="3.70078">
        <ele>188.03105</ele>
        <time>2014-05-19T17:14:10Z</time>
      </trkpt>
      <trkpt lat="43.57735" lon="3.70085">
        <ele>186.70932</ele>
        <time>2014-05-19T17:14:15Z</time>
      </trkpt>
      <trkpt lat="43.57714" lon="3.70088">
        <ele>184.77014</ele>
        <time>2014-05-19T17:14:19Z</time>
      </trkpt>
      <trkpt lat="43.57696" lon="3.70095">
        <ele>184.03508</ele>
        <time>2014-05-19T17:14:23Z</time>
      </trkpt>
      <trkpt lat="43.57675" lon="3.70096">
        <ele>181.89172</ele>
        <time>2014-05-19T17:14:28Z</time>
      </trkpt>
      <trkpt lat="43.57656" lon="3.70083">
        <ele>180.06223</ele>
        <time>2014-05-19T17:14:32Z</time>
      </trkpt>
      <trkpt lat="43.57644" lon="3.70057">
        <ele>178.77164</ele>
        <time>2014-05-19T17:14:36Z</time>
      </trkpt>
      <trkpt lat="43.5764" lon="3.70025">
        <ele>176.1801</ele>
        <time>2014-05-19T17:14:40Z</time>
      </trkpt>
      <trkpt lat="43.57633" lon="3.69999">
        <ele>173.86972</ele>
        <time>2014-05-19T17:14:43Z</time>
      </trkpt>
      <trkpt lat="43.57619" lon="3.6998">
        <ele>170.96066</ele>
        <time>2014-05-19T17:14:46Z</time>
      </trkpt>
      <trkpt lat="43.57601" lon="3.69979">
        <ele>168.75317</ele>
        <time>2014-05-19T17:14:50Z</time>
      </trkpt>
      <trkpt lat="43.57582" lon="3.69993">
        <ele>168.63039</ele>
        <time>2014-05-19T17:14:55Z</time>
      </trkpt>
      <trkpt lat="43.57566" lon="3.70011">
        <ele>169.05838</ele>
        <time>2014-05-19T17:15:00Z</time>
      </trkpt>
      <trkpt lat="43.57547" lon="3.70024">
        <ele>169.69362</ele>
        <time>2014-05-19T17:15:08Z</time>
      </trkpt>
      <trkpt lat="43.57529" lon="3.70031">
        <ele>170.06421</ele>
        <time>2014-05-19T17:15:13Z</time>
      </trkpt>
      <trkpt lat="43.57511" lon="3.70038">
        <ele>168.70311</ele>
        <time>2014-05-19T17:15:19Z</time>
      </trkpt>
      <trkpt lat="43.57491" lon="3.7004">
        <ele>168.11635</ele>
        <time>2014-05-19T17:15:25Z</time>
      </trkpt>
      <trkpt lat="43.57472" lon="3.70033">
        <ele>167.73528</ele>
        <time>2014-05-19T17:15:32Z</time>
      </trkpt>
      <trkpt lat="43.57452" lon="3.70034">
        <ele>170.00972</ele>
        <time>2014-05-19T17:15:39Z</time>
      </trkpt>
      <trkpt lat="43.57434" lon="3.7004">
        <ele>170.99387</ele>
        <time>2014-05-19T17:15:45Z</time>
      </trkpt>
      <trkpt lat="43.57416" lon="3.70046">
        <ele>171.81163</ele>
        <time>2014-05-19T17:15:50Z</time>
      </trkpt>
      <trkpt lat="43.57399" lon="3.70056">
        <ele>173.6094</ele>
        <time>2014-05-19T17:15:55Z</time>
      </trkpt>
      <trkpt lat="43.5738" lon="3.70065">
        <ele>176.9147</ele>
        <time>2014-05-19T17:16:01Z</time>
      </trkpt>
      <trkpt lat="43.57364" lon="3.70079">
        <ele>178.09605</ele>
        <time>2014-05-19T17:16:07Z</time>
      </trkpt>
      <trkpt lat="43.57346" lon="3.70088">
        <ele>177.5994</ele>
        <time>2014-05-19T17:16:14Z</time>
      </trkpt>
      <trkpt lat="43.57326" lon="3.70097">
        <ele>177.71379</ele>
        <time>2014-05-19T17:16:21Z</time>
      </trkpt>
      <trkpt lat="43.57307" lon="3.70105">
        <ele>178.00719</ele>
        <time>2014-05-19T17:16:27Z</time>
      </trkpt>
      <trkpt lat="43.57289" lon="3.70115">
        <ele>178.8068</ele>
        <time>2014-05-19T17:16:34Z</time>
      </trkpt>
      <trkpt lat="43.57273" lon="3.70135">
        <ele>179.18105</ele>
        <time>2014-05-19T17:16:40Z</time>
      </trkpt>
      <trkpt lat="43.5726" lon="3.70157">
        <ele>178.68945</ele>
        <time>2014-05-19T17:16:45Z</time>
      </trkpt>
      <trkpt lat="43.57244" lon="3.70176">
        <ele>177.67415</ele>
        <time>2014-05-19T17:16:50Z</time>
      </trkpt>
      <trkpt lat="43.57226" lon="3.70191">
        <ele>175.73596</ele>
        <time>2014-05-19T17:16:54Z</time>
      </trkpt>
      <trkpt lat="43.5721" lon="3.7021">
        <ele>173.75005</ele>
        <time>2014-05-19T17:16:58Z</time>
      </trkpt>
      <trkpt lat="43.57198" lon="3.70232">
        <ele>172.49611</ele>
        <time>2014-05-19T17:17:01Z</time>
      </trkpt>
      <trkpt lat="43.57188" lon="3.70256">
        <ele>171.43742</ele>
        <time>2014-05-19T17:17:04Z</time>
      </trkpt>
      <trkpt lat="43.57174" lon="3.70281">
        <ele>171.07204</ele>
        <time>2014-05-19T17:17:07Z</time>
      </trkpt>
      <trkpt lat="43.57164" lon="3.70302">
        <ele>170.11946</ele>
        <time>2014-05-19T17:17:10Z</time>
      </trkpt>
      <trkpt lat="43.57153" lon="3.70325">
        <ele>169.26915</ele>
        <time>2014-05-19T17:17:13Z</time>
      </trkpt>
      <trkpt lat="43.57143" lon="3.70348">
        <ele>168.66199</ele>
        <time>2014-05-19T17:17:16Z</time>
      </trkpt>
      <trkpt lat="43.57136" lon="3.70375">
        <ele>168.16052</ele>
        <time>2014-05-19T17:17:19Z</time>
      </trkpt>
      <trkpt lat="43.57128" lon="3.70399">
        <ele>167.8849</ele>
        <time>2014-05-19T17:17:22Z</time>
      </trkpt>
      <trkpt lat="43.57114" lon="3.70424">
        <ele>167.41632</ele>
        <time>2014-05-19T17:17:26Z</time>
      </trkpt>
      <trkpt lat="43.57098" lon="3.70438">
        <ele>167.58786</ele>
        <time>2014-05-19T17:17:31Z</time>
      </trkpt>
      <trkpt lat="43.57079" lon="3.70446">
        <ele>167.85788</ele>
        <time>2014-05-19T17:17:37Z</time>
      </trkpt>
      <trkpt lat="43.57063" lon="3.70461">
        <ele>167.91705</ele>
        <time>2014-05-19T17:17:42Z</time>
      </trkpt>
      <trkpt lat="43.57045" lon="3.70475">
        <ele>167.36996</ele>
        <time>2014-05-19T17:17:47Z</time>
      </trkpt>
      <trkpt lat="43.57026" lon="3.70491">
        <ele>166.22237</ele>
        <time>2014-05-19T17:17:52Z</time>
      </trkpt>
      <trkpt lat="43.57009" lon="3.70506">
        <ele>165.34184</ele>
        <time>2014-05-19T17:17:56Z</time>
      </trkpt>
      <trkpt lat="43.56988" lon="3.7052">
        <ele>164.13902</ele>
        <time>2014-05-19T17:18:00Z</time>
      </trkpt>
      <trkpt lat="43.56969" lon="3.70526">
        <ele>163.1774</ele>
        <time>2014-05-19T17:18:03Z</time>
      </trkpt>
      <trkpt lat="43.56945" lon="3.70527">
        <ele>162.42484</ele>
        <time>2014-05-19T17:18:06Z</time>
      </trkpt>
      <trkpt lat="43.56919" lon="3.70529">
        <ele>161.05423</ele>
        <time>2014-05-19T17:18:09Z</time>
      </trkpt>
      <trkpt lat="43.56899" lon="3.7053">
        <ele>160.49925</ele>
        <time>2014-05-19T17:18:11Z</time>
      </trkpt>
      <trkpt lat="43.5688" lon="3.70531">
        <ele>160.09332</ele>
        <time>2014-05-19T17:18:13Z</time>
      </trkpt>
      <trkpt lat="43.56858" lon="3.70533">
        <ele>159.67125</ele>
        <time>2014-05-19T17:18:15Z</time>
      </trkpt>
      <trkpt lat="43.56834" lon="3.70534">
        <ele>159.47133</ele>
        <time>2014-05-19T17:18:17Z</time>
      </trkpt>
      <trkpt lat="43.56811" lon="3.7053">
        <ele>157.65262</ele>
        <time>2014-05-19T17:18:19Z</time>
      </trkpt>
      <trkpt lat="43.56791" lon="3.70524">
        <ele>156.1796</ele>
        <time>2014-05-19T17:18:21Z</time>
      </trkpt>
      <trkpt lat="43.56767" lon="3.70527">
        <ele>155.15102</ele>
        <time>2014-05-19T17:18:23Z</time>
      </trkpt>
      <trkpt lat="43.56751" lon="3.70544">
        <ele>153.6662</ele>
        <time>2014-05-19T17:18:25Z</time>
      </trkpt>
      <trkpt lat="43.56732" lon="3.7056">
        <ele>151.84349</ele>
        <time>2014-05-19T17:18:27Z</time>
      </trkpt>
      <trkpt lat="43.56711" lon="3.70577">
        <ele>149.92929</ele>
        <time>2014-05-19T17:18:30Z</time>
      </trkpt>
      <trkpt lat="43.56691" lon="3.70588">
        <ele>148.43266</ele>
        <time>2014-05-19T17:18:33Z</time>
      </trkpt>
      <trkpt lat="43.56671" lon="3.70605">
        <ele>147.03104</ele>
        <time>2014-05-19T17:18:37Z</time>
      </trkpt>
      <trkpt lat="43.56653" lon="3.70618">
        <ele>147.1477</ele>
        <time>2014-05-19T17:18:41Z</time>
      </trkpt>
      <trkpt lat="43.56634" lon="3.70624">
        <ele>147.62917</ele>
        <time>2014-05-19T17:18:45Z</time>
      </trkpt>
      <trkpt lat="43.56616" lon="3.70631">
        <ele>146.7815</ele>
        <time>2014-05-19T17:18:49Z</time>
      </trkpt>
      <trkpt lat="43.56599" lon="3.70639">
        <ele>145.43517</ele>
        <time>2014-05-19T17:18:53Z</time>
      </trkpt>
      <trkpt lat="43.56579" lon="3.70648">
        <ele>143.76634</ele>
        <time>2014-05-19T17:18:59Z</time>
      </trkpt>
      <trkpt lat="43.56563" lon="3.7066">
        <ele>142.1736</ele>
        <time>2014-05-19T17:19:29Z</time>
      </trkpt>
      <trkpt lat="43.56549" lon="3.70676">
        <ele>141.51297</ele>
        <time>2014-05-19T17:19:40Z</time>
      </trkpt>
      <trkpt lat="43.56538" lon="3.70698">
        <ele>142.99069</ele>
        <time>2014-05-19T17:19:49Z</time>
      </trkpt>
      <trkpt lat="43.56526" lon="3.70719">
        <ele>144.70404</ele>
        <time>2014-05-19T17:19:56Z</time>
      </trkpt>
      <trkpt lat="43.56512" lon="3.70738">
        <ele>144.75209</ele>
        <time>2014-05-19T17:20:03Z</time>
      </trkpt>
      <trkpt lat="43.56493" lon="3.70737">
        <ele>143.85808</ele>
        <time>2014-05-19T17:20:10Z</time>
      </trkpt>
      <trkpt lat="43.56475" lon="3.70726">
        <ele>145.19272</ele>
        <time>2014-05-19T17:20:18Z</time>
      </trkpt>
      <trkpt lat="43.5646" lon="3.70707">
        <ele>145.30049</ele>
        <time>2014-05-19T17:20:24Z</time>
      </trkpt>
      <trkpt lat="43.56442" lon="3.70695">
        <ele>144.28441</ele>
        <time>2014-05-19T17:20:30Z</time>
      </trkpt>
      <trkpt lat="43.56424" lon="3.70684">
        <ele>144.39818</ele>
        <time>2014-05-19T17:20:35Z</time>
      </trkpt>
      <trkpt lat="43.56406" lon="3.70669">
        <ele>144.4486</ele>
        <time>2014-05-19T17:20:41Z</time>
      </trkpt>
      <trkpt lat="43.56386" lon="3.70674">
        <ele>148.406</ele>
        <time>2014-05-19T17:20:45Z</time>
      </trkpt>
      <trkpt lat="43.56367" lon="3.70673">
        <ele>150.31207</ele>
        <time>2014-05-19T17:20:50Z</time>
      </trkpt>
      <trkpt lat="43.56346" lon="3.70662">
        <ele>147.15842</ele>
        <time>2014-05-19T17:20:56Z</time>
      </trkpt>
      <trkpt lat="43.56327" lon="3.70648">
        <ele>146.07236</ele>
        <time>2014-05-19T17:21:01Z</time>
      </trkpt>
      <trkpt lat="43.56306" lon="3.70645">
        <ele>145.7936</ele>
        <time>2014-05-19T17:21:05Z</time>
      </trkpt>
      <trkpt lat="43.56286" lon="3.70646">
        <ele>146.32532</ele>
        <time>2014-05-19T17:21:09Z</time>
      </trkpt>
      <trkpt lat="43.56268" lon="3.70663">
        <ele>146.91035</ele>
        <time>2014-05-19T17:21:13Z</time>
      </trkpt>
      <trkpt lat="43.56257" lon="3.70682">
        <ele>146.23244</ele>
        <time>2014-05-19T17:21:19Z</time>
      </trkpt>
    </trkseg>
  </trk>
</gpx>